<?xml version="1.0" encoding="utf-8"?>
<gpx xmlns:xsi="http://www.w3.org/2001/XMLSchema-instance" xmlns:xsd="http://www.w3.org/2001/XMLSchema" version="1.1" creator="Shapelink.com" xmlns="http://www.topografix.com/GPX/1/1" xmlns:gpxtpx="http://www.garmin.com/xmlschemas/TrackPointExtension/v1">
  <metadata>
    <name>Ejecutar 7.21 km, 2020-03-27</name>
    <desc></desc>
    <author><name>Per Rooth</name></author> 
    <time>2020-03-27T11:52:59Z</time>
  </metadata>
  <trk>
    <name>Ejecutar 7.21 km, 2020-03-27</name>
    <trkseg>
      <trkpt lat="56.873197540127" lon="14.792973743642">
        <ele>175.8</ele>
        <time>2020-03-27T11:52:59Z</time>
      </trkpt>
      <trkpt lat="56.873171053323" lon="14.792976593488">
        <ele>176.8</ele>
        <time>2020-03-27T11:53:00Z</time>
      </trkpt>
      <trkpt lat="56.87314699727" lon="14.792966199932">
        <ele>176</ele>
        <time>2020-03-27T11:53:01Z</time>
      </trkpt>
      <trkpt lat="56.873123108855" lon="14.792956141652">
        <ele>175.8</ele>
        <time>2020-03-27T11:53:02Z</time>
      </trkpt>
      <trkpt lat="56.872930408974" lon="14.79287249029">
        <ele>175.8</ele>
        <time>2020-03-27T11:53:09Z</time>
      </trkpt>
      <trkpt lat="56.872781043516" lon="14.792696638028">
        <ele>175.8</ele>
        <time>2020-03-27T11:53:16Z</time>
      </trkpt>
      <trkpt lat="56.872646094926" lon="14.792474936773">
        <ele>175.4</ele>
        <time>2020-03-27T11:53:23Z</time>
      </trkpt>
      <trkpt lat="56.872474433614" lon="14.792298497778">
        <ele>175.2</ele>
        <time>2020-03-27T11:53:30Z</time>
      </trkpt>
      <trkpt lat="56.872413245744" lon="14.792250218034">
        <ele>174.8</ele>
        <time>2020-03-27T11:53:32Z</time>
      </trkpt>
      <trkpt lat="56.872234459817" lon="14.792088363545">
        <ele>174.2</ele>
        <time>2020-03-27T11:53:39Z</time>
      </trkpt>
      <trkpt lat="56.872116275027" lon="14.79196975966">
        <ele>173.6</ele>
        <time>2020-03-27T11:53:44Z</time>
      </trkpt>
      <trkpt lat="56.87196682575" lon="14.791770438078">
        <ele>173.2</ele>
        <time>2020-03-27T11:53:51Z</time>
      </trkpt>
      <trkpt lat="56.871825339278" lon="14.791577151464">
        <ele>174</ele>
        <time>2020-03-27T11:53:58Z</time>
      </trkpt>
      <trkpt lat="56.871698102036" lon="14.791337848219">
        <ele>174.4</ele>
        <time>2020-03-27T11:54:05Z</time>
      </trkpt>
      <trkpt lat="56.871659796753" lon="14.791260399463">
        <ele>174.6</ele>
        <time>2020-03-27T11:54:07Z</time>
      </trkpt>
      <trkpt lat="56.871508252001" lon="14.791017156725">
        <ele>175.2</ele>
        <time>2020-03-27T11:54:14Z</time>
      </trkpt>
      <trkpt lat="56.871369531556" lon="14.790773913987">
        <ele>175.8</ele>
        <time>2020-03-27T11:54:21Z</time>
      </trkpt>
      <trkpt lat="56.871221842478" lon="14.790567048695">
        <ele>175.4</ele>
        <time>2020-03-27T11:54:28Z</time>
      </trkpt>
      <trkpt lat="56.871055629401" lon="14.790342078499">
        <ele>174.8</ele>
        <time>2020-03-27T11:54:35Z</time>
      </trkpt>
      <trkpt lat="56.871030232244" lon="14.790309221451">
        <ele>174.6</ele>
        <time>2020-03-27T11:54:36Z</time>
      </trkpt>
      <trkpt lat="56.870877681664" lon="14.790125322565">
        <ele>174</ele>
        <time>2020-03-27T11:54:42Z</time>
      </trkpt>
      <trkpt lat="56.870734183536" lon="14.789949889398">
        <ele>173.6</ele>
        <time>2020-03-27T11:54:48Z</time>
      </trkpt>
      <trkpt lat="56.870567383726" lon="14.789763308304">
        <ele>172.6</ele>
        <time>2020-03-27T11:54:55Z</time>
      </trkpt>
      <trkpt lat="56.87054441732" lon="14.789736737681">
        <ele>172.4</ele>
        <time>2020-03-27T11:54:56Z</time>
      </trkpt>
      <trkpt lat="56.870418437363" lon="14.789608829887">
        <ele>171.2</ele>
        <time>2020-03-27T11:55:01Z</time>
      </trkpt>
      <trkpt lat="56.870247278965" lon="14.789433731996">
        <ele>170.2</ele>
        <time>2020-03-27T11:55:08Z</time>
      </trkpt>
      <trkpt lat="56.870221043618" lon="14.789405233536">
        <ele>169.8</ele>
        <time>2020-03-27T11:55:09Z</time>
      </trkpt>
      <trkpt lat="56.870088944874" lon="14.789294089542">
        <ele>168.8</ele>
        <time>2020-03-27T11:55:14Z</time>
      </trkpt>
      <trkpt lat="56.869929940231" lon="14.789123936972">
        <ele>168</ele>
        <time>2020-03-27T11:55:22Z</time>
      </trkpt>
      <trkpt lat="56.869752830684" lon="14.789023437991">
        <ele>168</ele>
        <time>2020-03-27T11:55:30Z</time>
      </trkpt>
      <trkpt lat="56.869562477735" lon="14.788970799659">
        <ele>167.6</ele>
        <time>2020-03-27T11:55:37Z</time>
      </trkpt>
      <trkpt lat="56.869361563592" lon="14.788894272912">
        <ele>167.6</ele>
        <time>2020-03-27T11:55:45Z</time>
      </trkpt>
      <trkpt lat="56.869176072145" lon="14.788843562417">
        <ele>168.4</ele>
        <time>2020-03-27T11:55:52Z</time>
      </trkpt>
      <trkpt lat="56.868997872951" lon="14.788930147444">
        <ele>169</ele>
        <time>2020-03-27T11:56:00Z</time>
      </trkpt>
      <trkpt lat="56.868951940139" lon="14.788939199896">
        <ele>170.2</ele>
        <time>2020-03-27T11:56:03Z</time>
      </trkpt>
      <trkpt lat="56.868906761698" lon="14.788946911244">
        <ele>171.4</ele>
        <time>2020-03-27T11:56:07Z</time>
      </trkpt>
      <trkpt lat="56.868899972359" lon="14.788947162701">
        <ele>171.4</ele>
        <time>2020-03-27T11:56:08Z</time>
      </trkpt>
      <trkpt lat="56.868867785863" lon="14.788952443298">
        <ele>172.4</ele>
        <time>2020-03-27T11:56:11Z</time>
      </trkpt>
      <trkpt lat="56.868825038173" lon="14.788959232637">
        <ele>173.4</ele>
        <time>2020-03-27T11:56:14Z</time>
      </trkpt>
      <trkpt lat="56.868813638789" lon="14.788963675044">
        <ele>173.8</ele>
        <time>2020-03-27T11:56:15Z</time>
      </trkpt>
      <trkpt lat="56.868798635188" lon="14.788967027804">
        <ele>174.2</ele>
        <time>2020-03-27T11:56:16Z</time>
      </trkpt>
      <trkpt lat="56.868745996856" lon="14.788993766065">
        <ele>174.6</ele>
        <time>2020-03-27T11:56:19Z</time>
      </trkpt>
      <trkpt lat="56.868689335212" lon="14.789029472959">
        <ele>175.6</ele>
        <time>2020-03-27T11:56:23Z</time>
      </trkpt>
      <trkpt lat="56.86867609181" lon="14.789047996958">
        <ele>175.8</ele>
        <time>2020-03-27T11:56:24Z</time>
      </trkpt>
      <trkpt lat="56.868656310526" lon="14.789089152087">
        <ele>176.4</ele>
        <time>2020-03-27T11:56:26Z</time>
      </trkpt>
      <trkpt lat="56.868626135686" lon="14.789189734887">
        <ele>176.8</ele>
        <time>2020-03-27T11:56:29Z</time>
      </trkpt>
      <trkpt lat="56.868622782926" lon="14.789222508116">
        <ele>177</ele>
        <time>2020-03-27T11:56:30Z</time>
      </trkpt>
      <trkpt lat="56.868618005243" lon="14.789247653816">
        <ele>177</ele>
        <time>2020-03-27T11:56:31Z</time>
      </trkpt>
      <trkpt lat="56.868506609792" lon="14.789347314607">
        <ele>178.2</ele>
        <time>2020-03-27T11:56:37Z</time>
      </trkpt>
      <trkpt lat="56.868455312564" lon="14.789370783927">
        <ele>178.6</ele>
        <time>2020-03-27T11:56:39Z</time>
      </trkpt>
      <trkpt lat="56.868355567954" lon="14.789428954313">
        <ele>178.8</ele>
        <time>2020-03-27T11:56:43Z</time>
      </trkpt>
      <trkpt lat="56.868288093659" lon="14.789469774166">
        <ele>178.6</ele>
        <time>2020-03-27T11:56:46Z</time>
      </trkpt>
      <trkpt lat="56.868239143363" lon="14.789498859359">
        <ele>178.6</ele>
        <time>2020-03-27T11:56:48Z</time>
      </trkpt>
      <trkpt lat="56.868041833437" lon="14.789620396909">
        <ele>177.8</ele>
        <time>2020-03-27T11:56:54Z</time>
      </trkpt>
      <trkpt lat="56.867939658076" lon="14.789656439079">
        <ele>177.6</ele>
        <time>2020-03-27T11:56:58Z</time>
      </trkpt>
      <trkpt lat="56.867861035854" lon="14.789677142372">
        <ele>177.4</ele>
        <time>2020-03-27T11:57:01Z</time>
      </trkpt>
      <trkpt lat="56.867830106643" lon="14.789693654715">
        <ele>177</ele>
        <time>2020-03-27T11:57:02Z</time>
      </trkpt>
      <trkpt lat="56.867783922374" lon="14.789707401031">
        <ele>176.4</ele>
        <time>2020-03-27T11:57:04Z</time>
      </trkpt>
      <trkpt lat="56.867725249074" lon="14.789722236994">
        <ele>175.8</ele>
        <time>2020-03-27T11:57:06Z</time>
      </trkpt>
      <trkpt lat="56.867588037371" lon="14.789775797335">
        <ele>175.4</ele>
        <time>2020-03-27T11:57:11Z</time>
      </trkpt>
      <trkpt lat="56.867458620835" lon="14.789824077079">
        <ele>175.4</ele>
        <time>2020-03-27T11:57:15Z</time>
      </trkpt>
      <trkpt lat="56.867376981129" lon="14.789892976297">
        <ele>175.4</ele>
        <time>2020-03-27T11:57:18Z</time>
      </trkpt>
      <trkpt lat="56.867302717495" lon="14.790010993449">
        <ele>175.4</ele>
        <time>2020-03-27T11:57:22Z</time>
      </trkpt>
      <trkpt lat="56.867232309535" lon="14.790111660068">
        <ele>176</ele>
        <time>2020-03-27T11:57:26Z</time>
      </trkpt>
      <trkpt lat="56.867209594586" lon="14.790180559286">
        <ele>176.2</ele>
        <time>2020-03-27T11:57:28Z</time>
      </trkpt>
      <trkpt lat="56.867195932089" lon="14.790252392169">
        <ele>176.8</ele>
        <time>2020-03-27T11:57:30Z</time>
      </trkpt>
      <trkpt lat="56.867189058931" lon="14.790289272529">
        <ele>177</ele>
        <time>2020-03-27T11:57:31Z</time>
      </trkpt>
      <trkpt lat="56.867087637941" lon="14.790431513372">
        <ele>177.6</ele>
        <time>2020-03-27T11:57:36Z</time>
      </trkpt>
      <trkpt lat="56.867040866939" lon="14.790483816428">
        <ele>177.8</ele>
        <time>2020-03-27T11:57:38Z</time>
      </trkpt>
      <trkpt lat="56.866864344125" lon="14.790623710339">
        <ele>177.4</ele>
        <time>2020-03-27T11:57:44Z</time>
      </trkpt>
      <trkpt lat="56.866689413872" lon="14.790794533461">
        <ele>177.4</ele>
        <time>2020-03-27T11:57:50Z</time>
      </trkpt>
      <trkpt lat="56.866526637374" lon="14.790971391551">
        <ele>177.6</ele>
        <time>2020-03-27T11:57:56Z</time>
      </trkpt>
      <trkpt lat="56.866411050973" lon="14.791142717587">
        <ele>177</ele>
        <time>2020-03-27T11:58:02Z</time>
      </trkpt>
      <trkpt lat="56.866250202312" lon="14.791339608418">
        <ele>177</ele>
        <time>2020-03-27T11:58:08Z</time>
      </trkpt>
      <trkpt lat="56.866113661161" lon="14.791603889725">
        <ele>176.8</ele>
        <time>2020-03-27T11:58:13Z</time>
      </trkpt>
      <trkpt lat="56.866085330339" lon="14.791803881859">
        <ele>176.6</ele>
        <time>2020-03-27T11:58:17Z</time>
      </trkpt>
      <trkpt lat="56.866101675044" lon="14.792159022962">
        <ele>176.6</ele>
        <time>2020-03-27T11:58:24Z</time>
      </trkpt>
      <trkpt lat="56.866198150713" lon="14.792454987851">
        <ele>176</ele>
        <time>2020-03-27T11:58:32Z</time>
      </trkpt>
      <trkpt lat="56.866229247562" lon="14.792506620355">
        <ele>175.6</ele>
        <time>2020-03-27T11:58:34Z</time>
      </trkpt>
      <trkpt lat="56.866327231973" lon="14.792739134261">
        <ele>175.6</ele>
        <time>2020-03-27T11:58:42Z</time>
      </trkpt>
      <trkpt lat="56.866446254953" lon="14.793024454137">
        <ele>175</ele>
        <time>2020-03-27T11:58:50Z</time>
      </trkpt>
      <trkpt lat="56.866554716739" lon="14.793298877543">
        <ele>174.6</ele>
        <time>2020-03-27T11:58:58Z</time>
      </trkpt>
      <trkpt lat="56.866691844623" lon="14.793609343119">
        <ele>173.8</ele>
        <time>2020-03-27T11:59:06Z</time>
      </trkpt>
      <trkpt lat="56.866740794919" lon="14.793645469108">
        <ele>173.6</ele>
        <time>2020-03-27T11:59:07Z</time>
      </trkpt>
      <trkpt lat="56.866924861443" lon="14.793728114642">
        <ele>173.2</ele>
        <time>2020-03-27T11:59:11Z</time>
      </trkpt>
      <trkpt lat="56.867110520528" lon="14.79367212355">
        <ele>174.6</ele>
        <time>2020-03-27T11:59:18Z</time>
      </trkpt>
      <trkpt lat="56.867129212165" lon="14.793518902418">
        <ele>175</ele>
        <time>2020-03-27T11:59:23Z</time>
      </trkpt>
      <trkpt lat="56.867137091151" lon="14.793451931037">
        <ele>175.8</ele>
        <time>2020-03-27T11:59:25Z</time>
      </trkpt>
      <trkpt lat="56.867151005105" lon="14.793337434283">
        <ele>176.8</ele>
        <time>2020-03-27T11:59:29Z</time>
      </trkpt>
      <trkpt lat="56.8672184794" lon="14.793029650915">
        <ele>177.8</ele>
        <time>2020-03-27T11:59:38Z</time>
      </trkpt>
      <trkpt lat="56.867227448033" lon="14.793001320093">
        <ele>177.8</ele>
        <time>2020-03-27T11:59:39Z</time>
      </trkpt>
      <trkpt lat="56.867350745782" lon="14.792742654659">
        <ele>179</ele>
        <time>2020-03-27T11:59:47Z</time>
      </trkpt>
      <trkpt lat="56.867479575585" lon="14.792507290907">
        <ele>179.8</ele>
        <time>2020-03-27T11:59:54Z</time>
      </trkpt>
      <trkpt lat="56.867524334931" lon="14.792379718389">
        <ele>180</ele>
        <time>2020-03-27T11:59:57Z</time>
      </trkpt>
      <trkpt lat="56.867579906928" lon="14.792222306307">
        <ele>181</ele>
        <time>2020-03-27T12:00:01Z</time>
      </trkpt>
      <trkpt lat="56.867609243578" lon="14.792079897826">
        <ele>181.2</ele>
        <time>2020-03-27T12:00:04Z</time>
      </trkpt>
      <trkpt lat="56.867592982692" lon="14.791784184394">
        <ele>182.2</ele>
        <time>2020-03-27T12:00:11Z</time>
      </trkpt>
      <trkpt lat="56.867589210837" lon="14.791734982641">
        <ele>182</ele>
        <time>2020-03-27T12:00:13Z</time>
      </trkpt>
      <trkpt lat="56.867581583308" lon="14.791698940471">
        <ele>181.6</ele>
        <time>2020-03-27T12:00:16Z</time>
      </trkpt>
      <trkpt lat="56.867698678451" lon="14.791634399841">
        <ele>182.4</ele>
        <time>2020-03-27T12:00:54Z</time>
      </trkpt>
      <trkpt lat="56.867840667837" lon="14.791871859068">
        <ele>182.4</ele>
        <time>2020-03-27T12:01:02Z</time>
      </trkpt>
      <trkpt lat="56.86779766869" lon="14.792230772026">
        <ele>181.8</ele>
        <time>2020-03-27T12:01:11Z</time>
      </trkpt>
      <trkpt lat="56.867760369235" lon="14.792550290054">
        <ele>180.8</ele>
        <time>2020-03-27T12:01:17Z</time>
      </trkpt>
      <trkpt lat="56.867763805814" lon="14.792781881951">
        <ele>180.4</ele>
        <time>2020-03-27T12:01:21Z</time>
      </trkpt>
      <trkpt lat="56.867811247368" lon="14.79314238747">
        <ele>180</ele>
        <time>2020-03-27T12:01:28Z</time>
      </trkpt>
      <trkpt lat="56.867866316451" lon="14.793323352691">
        <ele>179.6</ele>
        <time>2020-03-27T12:01:32Z</time>
      </trkpt>
      <trkpt lat="56.867877212921" lon="14.793490739234">
        <ele>178.2</ele>
        <time>2020-03-27T12:01:36Z</time>
      </trkpt>
      <trkpt lat="56.867876542369" lon="14.793535163304">
        <ele>178</ele>
        <time>2020-03-27T12:01:37Z</time>
      </trkpt>
      <trkpt lat="56.86788232588" lon="14.793626106919">
        <ele>177.6</ele>
        <time>2020-03-27T12:01:39Z</time>
      </trkpt>
      <trkpt lat="56.867916524032" lon="14.793761306966">
        <ele>177.2</ele>
        <time>2020-03-27T12:01:44Z</time>
      </trkpt>
      <trkpt lat="56.867971928391" lon="14.793863733784">
        <ele>176</ele>
        <time>2020-03-27T12:01:49Z</time>
      </trkpt>
      <trkpt lat="56.86798458506" lon="14.793881838688">
        <ele>175.8</ele>
        <time>2020-03-27T12:01:50Z</time>
      </trkpt>
      <trkpt lat="56.868086089869" lon="14.793961634376">
        <ele>174.8</ele>
        <time>2020-03-27T12:01:54Z</time>
      </trkpt>
      <trkpt lat="56.868171417611" lon="14.794017122554">
        <ele>173.6</ele>
        <time>2020-03-27T12:01:58Z</time>
      </trkpt>
      <trkpt lat="56.868227408703" lon="14.794069509429">
        <ele>172.4</ele>
        <time>2020-03-27T12:02:02Z</time>
      </trkpt>
      <trkpt lat="56.8682997445" lon="14.79412474615">
        <ele>171.8</ele>
        <time>2020-03-27T12:02:07Z</time>
      </trkpt>
      <trkpt lat="56.868316592119" lon="14.794179144681">
        <ele>171.6</ele>
        <time>2020-03-27T12:02:09Z</time>
      </trkpt>
      <trkpt lat="56.868327320951" lon="14.794238488533">
        <ele>171.2</ele>
        <time>2020-03-27T12:02:11Z</time>
      </trkpt>
      <trkpt lat="56.86835338866" lon="14.794282912603">
        <ele>171</ele>
        <time>2020-03-27T12:02:14Z</time>
      </trkpt>
      <trkpt lat="56.868400578757" lon="14.794382489575">
        <ele>170.2</ele>
        <time>2020-03-27T12:02:23Z</time>
      </trkpt>
      <trkpt lat="56.868413235426" lon="14.794368407983">
        <ele>170.2</ele>
        <time>2020-03-27T12:02:24Z</time>
      </trkpt>
      <trkpt lat="56.868448858501" lon="14.794319038592">
        <ele>169.6</ele>
        <time>2020-03-27T12:02:28Z</time>
      </trkpt>
      <trkpt lat="56.868452630356" lon="14.79430914795">
        <ele>169.6</ele>
        <time>2020-03-27T12:02:29Z</time>
      </trkpt>
      <trkpt lat="56.868453636184" lon="14.794274363065">
        <ele>169.2</ele>
        <time>2020-03-27T12:02:33Z</time>
      </trkpt>
      <trkpt lat="56.868466628129" lon="14.794166571831">
        <ele>169</ele>
        <time>2020-03-27T12:02:39Z</time>
      </trkpt>
      <trkpt lat="56.868581795435" lon="14.7938774801">
        <ele>168.8</ele>
        <time>2020-03-27T12:02:45Z</time>
      </trkpt>
      <trkpt lat="56.868699896406" lon="14.793598446649">
        <ele>169.4</ele>
        <time>2020-03-27T12:02:50Z</time>
      </trkpt>
      <trkpt lat="56.868827217467" lon="14.793271133454">
        <ele>169.8</ele>
        <time>2020-03-27T12:02:55Z</time>
      </trkpt>
      <trkpt lat="56.868848172217" lon="14.793194858164">
        <ele>169.6</ele>
        <time>2020-03-27T12:02:56Z</time>
      </trkpt>
      <trkpt lat="56.868923944593" lon="14.792876932697">
        <ele>169</ele>
        <time>2020-03-27T12:03:00Z</time>
      </trkpt>
      <trkpt lat="56.868973481622" lon="14.792647771551">
        <ele>168.8</ele>
        <time>2020-03-27T12:03:03Z</time>
      </trkpt>
      <trkpt lat="56.869002482996" lon="14.792507793821">
        <ele>169</ele>
        <time>2020-03-27T12:03:05Z</time>
      </trkpt>
      <trkpt lat="56.86908429034" lon="14.79220612924">
        <ele>169</ele>
        <time>2020-03-27T12:03:09Z</time>
      </trkpt>
      <trkpt lat="56.869166768236" lon="14.791874038362">
        <ele>169.2</ele>
        <time>2020-03-27T12:03:13Z</time>
      </trkpt>
      <trkpt lat="56.869246647743" lon="14.791487381315">
        <ele>169.2</ele>
        <time>2020-03-27T12:03:18Z</time>
      </trkpt>
      <trkpt lat="56.869230554495" lon="14.791328292853">
        <ele>169.2</ele>
        <time>2020-03-27T12:03:20Z</time>
      </trkpt>
      <trkpt lat="56.869116560655" lon="14.791072728722">
        <ele>168.8</ele>
        <time>2020-03-27T12:03:24Z</time>
      </trkpt>
      <trkpt lat="56.868960992591" lon="14.790814650021">
        <ele>169</ele>
        <time>2020-03-27T12:03:29Z</time>
      </trkpt>
      <trkpt lat="56.8689367689" lon="14.790769806856">
        <ele>169.2</ele>
        <time>2020-03-27T12:03:30Z</time>
      </trkpt>
      <trkpt lat="56.86890072673" lon="14.79064290489">
        <ele>170.2</ele>
        <time>2020-03-27T12:03:33Z</time>
      </trkpt>
      <trkpt lat="56.868880191075" lon="14.790561349003">
        <ele>171.4</ele>
        <time>2020-03-27T12:03:35Z</time>
      </trkpt>
      <trkpt lat="56.868845573828" lon="14.790504854997">
        <ele>172.8</ele>
        <time>2020-03-27T12:03:37Z</time>
      </trkpt>
      <trkpt lat="56.868816656273" lon="14.79043754834">
        <ele>173.8</ele>
        <time>2020-03-27T12:03:39Z</time>
      </trkpt>
      <trkpt lat="56.868772735117" lon="14.790369152036">
        <ele>174.8</ele>
        <time>2020-03-27T12:03:42Z</time>
      </trkpt>
      <trkpt lat="56.868759659353" lon="14.790352555874">
        <ele>175.4</ele>
        <time>2020-03-27T12:03:43Z</time>
      </trkpt>
      <trkpt lat="56.86874733796" lon="14.790327326355">
        <ele>176</ele>
        <time>2020-03-27T12:03:44Z</time>
      </trkpt>
      <trkpt lat="56.868713977998" lon="14.790275358575">
        <ele>177.2</ele>
        <time>2020-03-27T12:03:46Z</time>
      </trkpt>
      <trkpt lat="56.868609120429" lon="14.79022548627">
        <ele>178.4</ele>
        <time>2020-03-27T12:03:50Z</time>
      </trkpt>
      <trkpt lat="56.868452043623" lon="14.790203190416">
        <ele>179.4</ele>
        <time>2020-03-27T12:03:56Z</time>
      </trkpt>
      <trkpt lat="56.868427065561" lon="14.790232443247">
        <ele>180.4</ele>
        <time>2020-03-27T12:03:58Z</time>
      </trkpt>
      <trkpt lat="56.868411056132" lon="14.790256331662">
        <ele>181.2</ele>
        <time>2020-03-27T12:03:59Z</time>
      </trkpt>
      <trkpt lat="56.868385323699" lon="14.790299498447">
        <ele>182.6</ele>
        <time>2020-03-27T12:04:01Z</time>
      </trkpt>
      <trkpt lat="56.868347102235" lon="14.790359429032">
        <ele>183</ele>
        <time>2020-03-27T12:04:03Z</time>
      </trkpt>
      <trkpt lat="56.868324806381" lon="14.790410810079">
        <ele>183.6</ele>
        <time>2020-03-27T12:04:05Z</time>
      </trkpt>
      <trkpt lat="56.868294631541" lon="14.790497646563">
        <ele>184.6</ele>
        <time>2020-03-27T12:04:07Z</time>
      </trkpt>
      <trkpt lat="56.868275101714" lon="14.790537125312">
        <ele>185</ele>
        <time>2020-03-27T12:04:08Z</time>
      </trkpt>
      <trkpt lat="56.86825196767" lon="14.790604851064">
        <ele>185.4</ele>
        <time>2020-03-27T12:04:10Z</time>
      </trkpt>
      <trkpt lat="56.868228246893" lon="14.790714653954">
        <ele>186</ele>
        <time>2020-03-27T12:04:12Z</time>
      </trkpt>
      <trkpt lat="56.86816479591" lon="14.791053869447">
        <ele>186.6</ele>
        <time>2020-03-27T12:04:18Z</time>
      </trkpt>
      <trkpt lat="56.868091789561" lon="14.79131178051">
        <ele>185.2</ele>
        <time>2020-03-27T12:04:23Z</time>
      </trkpt>
      <trkpt lat="56.868100674375" lon="14.791389983637">
        <ele>184.8</ele>
        <time>2020-03-27T12:04:24Z</time>
      </trkpt>
      <trkpt lat="56.868101680203" lon="14.791491320808">
        <ele>184.6</ele>
        <time>2020-03-27T12:04:25Z</time>
      </trkpt>
      <trkpt lat="56.868077540331" lon="14.791601207517">
        <ele>184.4</ele>
        <time>2020-03-27T12:04:27Z</time>
      </trkpt>
      <trkpt lat="56.868023225619" lon="14.791733976813">
        <ele>183.8</ele>
        <time>2020-03-27T12:04:29Z</time>
      </trkpt>
      <trkpt lat="56.867920212068" lon="14.791986104365">
        <ele>182.6</ele>
        <time>2020-03-27T12:04:33Z</time>
      </trkpt>
      <trkpt lat="56.867824993684" lon="14.792247452007">
        <ele>181.6</ele>
        <time>2020-03-27T12:04:37Z</time>
      </trkpt>
      <trkpt lat="56.867822143838" lon="14.792318530519">
        <ele>181.2</ele>
        <time>2020-03-27T12:04:38Z</time>
      </trkpt>
      <trkpt lat="56.867805547676" lon="14.792656404908">
        <ele>180.8</ele>
        <time>2020-03-27T12:04:42Z</time>
      </trkpt>
      <trkpt lat="56.867795908491" lon="14.79288757771">
        <ele>180.4</ele>
        <time>2020-03-27T12:04:44Z</time>
      </trkpt>
      <trkpt lat="56.867821473286" lon="14.793230229782">
        <ele>179.4</ele>
        <time>2020-03-27T12:04:48Z</time>
      </trkpt>
      <trkpt lat="56.867836476887" lon="14.793497025659">
        <ele>178</ele>
        <time>2020-03-27T12:04:52Z</time>
      </trkpt>
      <trkpt lat="56.867906465752" lon="14.793701208743">
        <ele>177.2</ele>
        <time>2020-03-27T12:04:59Z</time>
      </trkpt>
      <trkpt lat="56.867936556773" lon="14.793792403815">
        <ele>177.2</ele>
        <time>2020-03-27T12:05:05Z</time>
      </trkpt>
      <trkpt lat="56.867949548718" lon="14.793816878963">
        <ele>176.2</ele>
        <time>2020-03-27T12:05:07Z</time>
      </trkpt>
      <trkpt lat="56.868006629457" lon="14.793897261384">
        <ele>175</ele>
        <time>2020-03-27T12:05:13Z</time>
      </trkpt>
      <trkpt lat="56.868044850921" lon="14.79399901765">
        <ele>174.2</ele>
        <time>2020-03-27T12:05:21Z</time>
      </trkpt>
      <trkpt lat="56.868054071011" lon="14.794015446174">
        <ele>174</ele>
        <time>2020-03-27T12:05:22Z</time>
      </trkpt>
      <trkpt lat="56.868078713797" lon="14.794018966572">
        <ele>173.8</ele>
        <time>2020-03-27T12:05:23Z</time>
      </trkpt>
      <trkpt lat="56.868140907495" lon="14.794048973774">
        <ele>173.2</ele>
        <time>2020-03-27T12:05:27Z</time>
      </trkpt>
      <trkpt lat="56.868181056796" lon="14.794084010116">
        <ele>172.6</ele>
        <time>2020-03-27T12:05:30Z</time>
      </trkpt>
      <trkpt lat="56.86819161799" lon="14.794100941554">
        <ele>172.4</ele>
        <time>2020-03-27T12:05:31Z</time>
      </trkpt>
      <trkpt lat="56.868211399274" lon="14.794162045605">
        <ele>171.6</ele>
        <time>2020-03-27T12:05:34Z</time>
      </trkpt>
      <trkpt lat="56.868220703183" lon="14.794183335631">
        <ele>171.4</ele>
        <time>2020-03-27T12:05:35Z</time>
      </trkpt>
      <trkpt lat="56.868287758383" lon="14.794260952025">
        <ele>170.6</ele>
        <time>2020-03-27T12:05:42Z</time>
      </trkpt>
      <trkpt lat="56.86829639174" lon="14.79425969474">
        <ele>170.4</ele>
        <time>2020-03-27T12:05:43Z</time>
      </trkpt>
      <trkpt lat="56.868322124173" lon="14.794267070812">
        <ele>170.4</ele>
        <time>2020-03-27T12:05:45Z</time>
      </trkpt>
      <trkpt lat="56.868540640306" lon="14.793927520043">
        <ele>170</ele>
        <time>2020-03-27T12:05:58Z</time>
      </trkpt>
      <trkpt lat="56.868672906688" lon="14.793644044185">
        <ele>171</ele>
        <time>2020-03-27T12:06:04Z</time>
      </trkpt>
      <trkpt lat="56.868785307967" lon="14.793309857832">
        <ele>170.8</ele>
        <time>2020-03-27T12:06:09Z</time>
      </trkpt>
      <trkpt lat="56.868809280201" lon="14.793235258922">
        <ele>171</ele>
        <time>2020-03-27T12:06:10Z</time>
      </trkpt>
      <trkpt lat="56.868904163309" lon="14.792888080624">
        <ele>171</ele>
        <time>2020-03-27T12:06:14Z</time>
      </trkpt>
      <trkpt lat="56.868942971506" lon="14.792740223908">
        <ele>170.8</ele>
        <time>2020-03-27T12:06:16Z</time>
      </trkpt>
      <trkpt lat="56.869020336443" lon="14.792429003961">
        <ele>170.2</ele>
        <time>2020-03-27T12:06:20Z</time>
      </trkpt>
      <trkpt lat="56.869112872619" lon="14.792069671908">
        <ele>170</ele>
        <time>2020-03-27T12:06:25Z</time>
      </trkpt>
      <trkpt lat="56.869169618082" lon="14.79172919913">
        <ele>170.2</ele>
        <time>2020-03-27T12:06:29Z</time>
      </trkpt>
      <trkpt lat="56.869218568378" lon="14.791496769043">
        <ele>170.8</ele>
        <time>2020-03-27T12:06:32Z</time>
      </trkpt>
      <trkpt lat="56.869220244758" lon="14.791311445234">
        <ele>170.8</ele>
        <time>2020-03-27T12:06:34Z</time>
      </trkpt>
      <trkpt lat="56.869167522607" lon="14.791146237985">
        <ele>170.4</ele>
        <time>2020-03-27T12:06:36Z</time>
      </trkpt>
      <trkpt lat="56.869047074704" lon="14.790882291954">
        <ele>170.4</ele>
        <time>2020-03-27T12:06:40Z</time>
      </trkpt>
      <trkpt lat="56.869024108298" lon="14.790819846799">
        <ele>170.2</ele>
        <time>2020-03-27T12:06:41Z</time>
      </trkpt>
      <trkpt lat="56.868900475273" lon="14.790577023156">
        <ele>171.8</ele>
        <time>2020-03-27T12:06:47Z</time>
      </trkpt>
      <trkpt lat="56.868872563546" lon="14.790507201929">
        <ele>172.8</ele>
        <time>2020-03-27T12:06:49Z</time>
      </trkpt>
      <trkpt lat="56.868801149758" lon="14.790365799276">
        <ele>175</ele>
        <time>2020-03-27T12:06:53Z</time>
      </trkpt>
      <trkpt lat="56.868775333506" lon="14.790290362176">
        <ele>176</ele>
        <time>2020-03-27T12:06:55Z</time>
      </trkpt>
      <trkpt lat="56.868655556155" lon="14.790137141044">
        <ele>177.2</ele>
        <time>2020-03-27T12:07:01Z</time>
      </trkpt>
      <trkpt lat="56.868539885935" lon="14.790045443058">
        <ele>178.4</ele>
        <time>2020-03-27T12:07:05Z</time>
      </trkpt>
      <trkpt lat="56.868424550991" lon="14.790051645664">
        <ele>179.4</ele>
        <time>2020-03-27T12:07:09Z</time>
      </trkpt>
      <trkpt lat="56.868325560752" lon="14.790076791364">
        <ele>180.8</ele>
        <time>2020-03-27T12:07:13Z</time>
      </trkpt>
      <trkpt lat="56.868275856085" lon="14.790144433297">
        <ele>182.2</ele>
        <time>2020-03-27T12:07:17Z</time>
      </trkpt>
      <trkpt lat="56.868245681245" lon="14.790203022778">
        <ele>183.6</ele>
        <time>2020-03-27T12:07:20Z</time>
      </trkpt>
      <trkpt lat="56.868208884704" lon="14.790338725739">
        <ele>184.8</ele>
        <time>2020-03-27T12:07:23Z</time>
      </trkpt>
      <trkpt lat="56.868175273285" lon="14.790446433154">
        <ele>186.2</ele>
        <time>2020-03-27T12:07:26Z</time>
      </trkpt>
      <trkpt lat="56.86810360804" lon="14.79076276606">
        <ele>186.8</ele>
        <time>2020-03-27T12:07:32Z</time>
      </trkpt>
      <trkpt lat="56.868086425145" lon="14.791071303799">
        <ele>185.8</ele>
        <time>2020-03-27T12:07:38Z</time>
      </trkpt>
      <trkpt lat="56.868043174541" lon="14.791450668593">
        <ele>185.6</ele>
        <time>2020-03-27T12:07:43Z</time>
      </trkpt>
      <trkpt lat="56.868021130144" lon="14.791537756534">
        <ele>185.6</ele>
        <time>2020-03-27T12:07:44Z</time>
      </trkpt>
      <trkpt lat="56.867993050779" lon="14.791609170322">
        <ele>185</ele>
        <time>2020-03-27T12:07:45Z</time>
      </trkpt>
      <trkpt lat="56.867964384681" lon="14.791677063712">
        <ele>183.8</ele>
        <time>2020-03-27T12:07:46Z</time>
      </trkpt>
      <trkpt lat="56.867941418275" lon="14.791735988469">
        <ele>182.8</ele>
        <time>2020-03-27T12:07:47Z</time>
      </trkpt>
      <trkpt lat="56.867868998659" lon="14.791951151842">
        <ele>181.4</ele>
        <time>2020-03-27T12:07:50Z</time>
      </trkpt>
      <trkpt lat="56.867782497451" lon="14.792301431443">
        <ele>181.8</ele>
        <time>2020-03-27T12:07:55Z</time>
      </trkpt>
      <trkpt lat="56.8677465391" lon="14.79253721429">
        <ele>180</ele>
        <time>2020-03-27T12:07:58Z</time>
      </trkpt>
      <trkpt lat="56.867771098067" lon="14.79294122187">
        <ele>180.2</ele>
        <time>2020-03-27T12:08:03Z</time>
      </trkpt>
      <trkpt lat="56.867816025051" lon="14.793488895216">
        <ele>178.6</ele>
        <time>2020-03-27T12:08:11Z</time>
      </trkpt>
      <trkpt lat="56.867825412779" lon="14.79361177387">
        <ele>177.6</ele>
        <time>2020-03-27T12:08:15Z</time>
      </trkpt>
      <trkpt lat="56.867842679493" lon="14.793670782446">
        <ele>177.2</ele>
        <time>2020-03-27T12:08:18Z</time>
      </trkpt>
      <trkpt lat="56.867916859308" lon="14.793774047454">
        <ele>177</ele>
        <time>2020-03-27T12:08:23Z</time>
      </trkpt>
      <trkpt lat="56.867939825714" lon="14.793799696068">
        <ele>176.6</ele>
        <time>2020-03-27T12:08:25Z</time>
      </trkpt>
      <trkpt lat="56.867943429931" lon="14.793823081569">
        <ele>176.6</ele>
        <time>2020-03-27T12:08:26Z</time>
      </trkpt>
      <trkpt lat="56.86795357203" lon="14.793869768752">
        <ele>176</ele>
        <time>2020-03-27T12:08:28Z</time>
      </trkpt>
      <trkpt lat="56.868019453764" lon="14.793962556385">
        <ele>175.6</ele>
        <time>2020-03-27T12:08:36Z</time>
      </trkpt>
      <trkpt lat="56.868030769329" lon="14.793969429543">
        <ele>175.6</ele>
        <time>2020-03-27T12:08:37Z</time>
      </trkpt>
      <trkpt lat="56.868038899772" lon="14.793979236366">
        <ele>174.2</ele>
        <time>2020-03-27T12:08:38Z</time>
      </trkpt>
      <trkpt lat="56.86808684424" lon="14.794058948235">
        <ele>174</ele>
        <time>2020-03-27T12:08:46Z</time>
      </trkpt>
      <trkpt lat="56.868093382122" lon="14.794071856361">
        <ele>173.2</ele>
        <time>2020-03-27T12:08:48Z</time>
      </trkpt>
      <trkpt lat="56.86811701908" lon="14.79413983357">
        <ele>172.2</ele>
        <time>2020-03-27T12:08:53Z</time>
      </trkpt>
      <trkpt lat="56.868125065704" lon="14.794150813859">
        <ele>172</ele>
        <time>2020-03-27T12:08:54Z</time>
      </trkpt>
      <trkpt lat="56.868138728201" lon="14.79417336117">
        <ele>171.6</ele>
        <time>2020-03-27T12:08:55Z</time>
      </trkpt>
      <trkpt lat="56.868180889158" lon="14.79427310578">
        <ele>171.2</ele>
        <time>2020-03-27T12:09:01Z</time>
      </trkpt>
      <trkpt lat="56.868192791456" lon="14.794295233996">
        <ele>170.8</ele>
        <time>2020-03-27T12:09:03Z</time>
      </trkpt>
      <trkpt lat="56.868201257175" lon="14.794306298104">
        <ele>170.8</ele>
        <time>2020-03-27T12:09:05Z</time>
      </trkpt>
      <trkpt lat="56.868256661534" lon="14.794312752167">
        <ele>170.6</ele>
        <time>2020-03-27T12:09:09Z</time>
      </trkpt>
      <trkpt lat="56.868306869115" lon="14.79430328062">
        <ele>170</ele>
        <time>2020-03-27T12:09:13Z</time>
      </trkpt>
      <trkpt lat="56.868386413346" lon="14.794255419971">
        <ele>171.2</ele>
        <time>2020-03-27T12:09:17Z</time>
      </trkpt>
      <trkpt lat="56.868444248456" lon="14.794092811111">
        <ele>169.8</ele>
        <time>2020-03-27T12:09:22Z</time>
      </trkpt>
      <trkpt lat="56.86853779046" lon="14.793883934163">
        <ele>171</ele>
        <time>2020-03-27T12:09:26Z</time>
      </trkpt>
      <trkpt lat="56.868561762694" lon="14.793836911704">
        <ele>170</ele>
        <time>2020-03-27T12:09:27Z</time>
      </trkpt>
      <trkpt lat="56.868582717444" lon="14.793773293083">
        <ele>171.4</ele>
        <time>2020-03-27T12:09:28Z</time>
      </trkpt>
      <trkpt lat="56.868631164826" lon="14.79363943414">
        <ele>171.2</ele>
        <time>2020-03-27T12:09:30Z</time>
      </trkpt>
      <trkpt lat="56.868753289109" lon="14.793374649919">
        <ele>171.8</ele>
        <time>2020-03-27T12:09:35Z</time>
      </trkpt>
      <trkpt lat="56.868846747294" lon="14.793093269536">
        <ele>172</ele>
        <time>2020-03-27T12:09:39Z</time>
      </trkpt>
      <trkpt lat="56.868886058405" lon="14.792937450015">
        <ele>171.8</ele>
        <time>2020-03-27T12:09:41Z</time>
      </trkpt>
      <trkpt lat="56.868979768047" lon="14.79259421121">
        <ele>171.2</ele>
        <time>2020-03-27T12:09:46Z</time>
      </trkpt>
      <trkpt lat="56.868998459684" lon="14.792532855702">
        <ele>171</ele>
        <time>2020-03-27T12:09:47Z</time>
      </trkpt>
      <trkpt lat="56.869033663664" lon="14.792386507728">
        <ele>170.8</ele>
        <time>2020-03-27T12:09:49Z</time>
      </trkpt>
      <trkpt lat="56.869112034429" lon="14.792077550894">
        <ele>170.6</ele>
        <time>2020-03-27T12:09:54Z</time>
      </trkpt>
      <trkpt lat="56.869165008037" lon="14.791774126114">
        <ele>170.4</ele>
        <time>2020-03-27T12:09:58Z</time>
      </trkpt>
      <trkpt lat="56.869217143455" lon="14.791529458453">
        <ele>170.2</ele>
        <time>2020-03-27T12:10:01Z</time>
      </trkpt>
      <trkpt lat="56.869224184251" lon="14.79136123372">
        <ele>170.2</ele>
        <time>2020-03-27T12:10:03Z</time>
      </trkpt>
      <trkpt lat="56.869189650823" lon="14.791222597094">
        <ele>169.8</ele>
        <time>2020-03-27T12:10:05Z</time>
      </trkpt>
      <trkpt lat="56.869102143787" lon="14.791032495602">
        <ele>169.8</ele>
        <time>2020-03-27T12:10:08Z</time>
      </trkpt>
      <trkpt lat="56.869016061674" lon="14.790837700246">
        <ele>170.4</ele>
        <time>2020-03-27T12:10:11Z</time>
      </trkpt>
      <trkpt lat="56.868926878258" lon="14.79055573313">
        <ele>171.4</ele>
        <time>2020-03-27T12:10:18Z</time>
      </trkpt>
      <trkpt lat="56.868901984015" lon="14.790476188899">
        <ele>172.4</ele>
        <time>2020-03-27T12:10:20Z</time>
      </trkpt>
      <trkpt lat="56.86887893379" lon="14.790388430406">
        <ele>174</ele>
        <time>2020-03-27T12:10:22Z</time>
      </trkpt>
      <trkpt lat="56.868848507493" lon="14.790318022446">
        <ele>175.4</ele>
        <time>2020-03-27T12:10:24Z</time>
      </trkpt>
      <trkpt lat="56.868795450066" lon="14.790201094941">
        <ele>176.4</ele>
        <time>2020-03-27T12:10:28Z</time>
      </trkpt>
      <trkpt lat="56.868782458121" lon="14.790179553458">
        <ele>176.6</ele>
        <time>2020-03-27T12:10:29Z</time>
      </trkpt>
      <trkpt lat="56.868726215572" lon="14.790102607616">
        <ele>177.8</ele>
        <time>2020-03-27T12:10:32Z</time>
      </trkpt>
      <trkpt lat="56.868652119576" lon="14.790066733084">
        <ele>178.8</ele>
        <time>2020-03-27T12:10:35Z</time>
      </trkpt>
      <trkpt lat="56.868547262007" lon="14.789975286555">
        <ele>180</ele>
        <time>2020-03-27T12:10:39Z</time>
      </trkpt>
      <trkpt lat="56.868388341183" lon="14.790026751421">
        <ele>181.2</ele>
        <time>2020-03-27T12:10:45Z</time>
      </trkpt>
      <trkpt lat="56.868299660681" lon="14.790124232918">
        <ele>182.4</ele>
        <time>2020-03-27T12:10:49Z</time>
      </trkpt>
      <trkpt lat="56.868254817516" lon="14.790202436045">
        <ele>183.2</ele>
        <time>2020-03-27T12:10:51Z</time>
      </trkpt>
      <trkpt lat="56.86824442396" lon="14.790230683048">
        <ele>183.8</ele>
        <time>2020-03-27T12:10:52Z</time>
      </trkpt>
      <trkpt lat="56.868216931328" lon="14.790305365777">
        <ele>184.8</ele>
        <time>2020-03-27T12:10:54Z</time>
      </trkpt>
      <trkpt lat="56.868184325737" lon="14.790385496741">
        <ele>185.8</ele>
        <time>2020-03-27T12:10:56Z</time>
      </trkpt>
      <trkpt lat="56.868151636327" lon="14.79046939956">
        <ele>186.6</ele>
        <time>2020-03-27T12:10:58Z</time>
      </trkpt>
      <trkpt lat="56.868128167007" lon="14.790545255755">
        <ele>187</ele>
        <time>2020-03-27T12:11:00Z</time>
      </trkpt>
      <trkpt lat="56.868113163406" lon="14.790629326212">
        <ele>186.8</ele>
        <time>2020-03-27T12:11:02Z</time>
      </trkpt>
      <trkpt lat="56.868030601691" lon="14.790942725453">
        <ele>186.6</ele>
        <time>2020-03-27T12:11:09Z</time>
      </trkpt>
      <trkpt lat="56.867998750471" lon="14.79115252441">
        <ele>186.6</ele>
        <time>2020-03-27T12:11:13Z</time>
      </trkpt>
      <trkpt lat="56.867980226472" lon="14.791355198752">
        <ele>185.8</ele>
        <time>2020-03-27T12:11:16Z</time>
      </trkpt>
      <trkpt lat="56.867968910907" lon="14.791487632772">
        <ele>185</ele>
        <time>2020-03-27T12:11:18Z</time>
      </trkpt>
      <trkpt lat="56.867909064141" lon="14.791588802305">
        <ele>184.6</ele>
        <time>2020-03-27T12:11:20Z</time>
      </trkpt>
      <trkpt lat="56.867811247368" lon="14.791912511283">
        <ele>183.4</ele>
        <time>2020-03-27T12:11:25Z</time>
      </trkpt>
      <trkpt lat="56.867722902142" lon="14.792241919953">
        <ele>183.4</ele>
        <time>2020-03-27T12:11:30Z</time>
      </trkpt>
      <trkpt lat="56.867717286269" lon="14.79261684234">
        <ele>182.8</ele>
        <time>2020-03-27T12:11:34Z</time>
      </trkpt>
      <trkpt lat="56.867722650685" lon="14.792699068779">
        <ele>182.4</ele>
        <time>2020-03-27T12:11:35Z</time>
      </trkpt>
      <trkpt lat="56.867753412258" lon="14.79302587906">
        <ele>182.4</ele>
        <time>2020-03-27T12:11:38Z</time>
      </trkpt>
      <trkpt lat="56.867844188235" lon="14.79340474094">
        <ele>181</ele>
        <time>2020-03-27T12:11:43Z</time>
      </trkpt>
      <trkpt lat="56.867865310623" lon="14.793471879959">
        <ele>179.8</ele>
        <time>2020-03-27T12:11:45Z</time>
      </trkpt>
      <trkpt lat="56.867877464378" lon="14.793524266834">
        <ele>179</ele>
        <time>2020-03-27T12:11:47Z</time>
      </trkpt>
      <trkpt lat="56.867908225951" lon="14.793647564583">
        <ele>178.8</ele>
        <time>2020-03-27T12:11:52Z</time>
      </trkpt>
      <trkpt lat="56.86793429366" lon="14.793750242858">
        <ele>178.6</ele>
        <time>2020-03-27T12:11:56Z</time>
      </trkpt>
      <trkpt lat="56.867980980843" lon="14.793846634708">
        <ele>177.8</ele>
        <time>2020-03-27T12:12:03Z</time>
      </trkpt>
      <trkpt lat="56.867991877313" lon="14.793884856172">
        <ele>177.6</ele>
        <time>2020-03-27T12:12:05Z</time>
      </trkpt>
      <trkpt lat="56.868011826235" lon="14.793965154774">
        <ele>177.2</ele>
        <time>2020-03-27T12:12:09Z</time>
      </trkpt>
      <trkpt lat="56.868016017185" lon="14.793973117579">
        <ele>177</ele>
        <time>2020-03-27T12:12:10Z</time>
      </trkpt>
      <trkpt lat="56.868031607519" lon="14.793982505307">
        <ele>176.6</ele>
        <time>2020-03-27T12:12:12Z</time>
      </trkpt>
      <trkpt lat="56.868043006903" lon="14.793996586899">
        <ele>176.4</ele>
        <time>2020-03-27T12:12:13Z</time>
      </trkpt>
      <trkpt lat="56.868069996621" lon="14.794029527766">
        <ele>174.4</ele>
        <time>2020-03-27T12:12:15Z</time>
      </trkpt>
      <trkpt lat="56.868099500909" lon="14.794086021772">
        <ele>174</ele>
        <time>2020-03-27T12:12:19Z</time>
      </trkpt>
      <trkpt lat="56.868115594157" lon="14.794117872992">
        <ele>174</ele>
        <time>2020-03-27T12:12:21Z</time>
      </trkpt>
      <trkpt lat="56.868152642155" lon="14.794149556574">
        <ele>173.4</ele>
        <time>2020-03-27T12:12:24Z</time>
      </trkpt>
      <trkpt lat="56.868163370987" lon="14.794154585714">
        <ele>173</ele>
        <time>2020-03-27T12:12:25Z</time>
      </trkpt>
      <trkpt lat="56.868187259402" lon="14.794170511324">
        <ele>172.8</ele>
        <time>2020-03-27T12:12:27Z</time>
      </trkpt>
      <trkpt lat="56.868224391219" lon="14.794271345581">
        <ele>172.4</ele>
        <time>2020-03-27T12:12:32Z</time>
      </trkpt>
      <trkpt lat="56.868240484467" lon="14.794306884837">
        <ele>172.2</ele>
        <time>2020-03-27T12:12:34Z</time>
      </trkpt>
      <trkpt lat="56.868250039833" lon="14.794314260909">
        <ele>172</ele>
        <time>2020-03-27T12:12:36Z</time>
      </trkpt>
      <trkpt lat="56.868264875796" lon="14.794326917578">
        <ele>171.8</ele>
        <time>2020-03-27T12:12:39Z</time>
      </trkpt>
      <trkpt lat="56.868296978473" lon="14.794352147097">
        <ele>171.4</ele>
        <time>2020-03-27T12:12:42Z</time>
      </trkpt>
      <trkpt lat="56.868311730617" lon="14.794352985287">
        <ele>171.2</ele>
        <time>2020-03-27T12:12:43Z</time>
      </trkpt>
      <trkpt lat="56.868370320098" lon="14.794320463515">
        <ele>171.2</ele>
        <time>2020-03-27T12:12:46Z</time>
      </trkpt>
      <trkpt lat="56.86838943083" lon="14.794277548187">
        <ele>171.2</ele>
        <time>2020-03-27T12:12:48Z</time>
      </trkpt>
      <trkpt lat="56.868503843765" lon="14.794050314878">
        <ele>170</ele>
        <time>2020-03-27T12:12:55Z</time>
      </trkpt>
      <trkpt lat="56.86862328584" lon="14.793803048828">
        <ele>170</ele>
        <time>2020-03-27T12:13:00Z</time>
      </trkpt>
      <trkpt lat="56.868741386811" lon="14.793492080338">
        <ele>170.2</ele>
        <time>2020-03-27T12:13:06Z</time>
      </trkpt>
      <trkpt lat="56.868825541087" lon="14.793179519287">
        <ele>170.8</ele>
        <time>2020-03-27T12:13:10Z</time>
      </trkpt>
      <trkpt lat="56.868931320665" lon="14.792842483088">
        <ele>170</ele>
        <time>2020-03-27T12:13:15Z</time>
      </trkpt>
      <trkpt lat="56.869026622868" lon="14.792485917062">
        <ele>169.8</ele>
        <time>2020-03-27T12:13:20Z</time>
      </trkpt>
      <trkpt lat="56.869107508203" lon="14.792190790363">
        <ele>169.6</ele>
        <time>2020-03-27T12:13:25Z</time>
      </trkpt>
      <trkpt lat="56.869175150136" lon="14.791804971506">
        <ele>170.4</ele>
        <time>2020-03-27T12:13:30Z</time>
      </trkpt>
      <trkpt lat="56.869204905881" lon="14.791386630877">
        <ele>170</ele>
        <time>2020-03-27T12:13:35Z</time>
      </trkpt>
      <trkpt lat="56.869091247317" lon="14.791051690153">
        <ele>169.8</ele>
        <time>2020-03-27T12:13:39Z</time>
      </trkpt>
      <trkpt lat="56.86896610555" lon="14.790749019744">
        <ele>170.2</ele>
        <time>2020-03-27T12:13:43Z</time>
      </trkpt>
      <trkpt lat="56.868906929336" lon="14.790548859972">
        <ele>171</ele>
        <time>2020-03-27T12:13:48Z</time>
      </trkpt>
      <trkpt lat="56.868904498585" lon="14.790522959901">
        <ele>171.6</ele>
        <time>2020-03-27T12:13:49Z</time>
      </trkpt>
      <trkpt lat="56.868894524124" lon="14.790439308539">
        <ele>172.8</ele>
        <time>2020-03-27T12:13:52Z</time>
      </trkpt>
      <trkpt lat="56.868870970985" lon="14.790349454571">
        <ele>174.2</ele>
        <time>2020-03-27T12:13:55Z</time>
      </trkpt>
      <trkpt lat="56.868850770606" lon="14.79030846708">
        <ele>174.6</ele>
        <time>2020-03-27T12:13:56Z</time>
      </trkpt>
      <trkpt lat="56.868800898301" lon="14.790262282811">
        <ele>175.6</ele>
        <time>2020-03-27T12:13:58Z</time>
      </trkpt>
      <trkpt lat="56.868731077074" lon="14.790224731899">
        <ele>176.8</ele>
        <time>2020-03-27T12:14:01Z</time>
      </trkpt>
      <trkpt lat="56.868649856463" lon="14.79014502003">
        <ele>178.2</ele>
        <time>2020-03-27T12:14:05Z</time>
      </trkpt>
      <trkpt lat="56.868621190365" lon="14.790126076936">
        <ele>177.4</ele>
        <time>2020-03-27T12:14:06Z</time>
      </trkpt>
      <trkpt lat="56.868482805196" lon="14.790031193828">
        <ele>179.8</ele>
        <time>2020-03-27T12:14:11Z</time>
      </trkpt>
      <trkpt lat="56.868351628461" lon="14.790007473051">
        <ele>180.6</ele>
        <time>2020-03-27T12:14:17Z</time>
      </trkpt>
      <trkpt lat="56.86833494848" lon="14.790023063385">
        <ele>181</ele>
        <time>2020-03-27T12:14:18Z</time>
      </trkpt>
      <trkpt lat="56.868309216047" lon="14.790058518822">
        <ele>181.8</ele>
        <time>2020-03-27T12:14:20Z</time>
      </trkpt>
      <trkpt lat="56.868297649025" lon="14.790081401409">
        <ele>182.4</ele>
        <time>2020-03-27T12:14:21Z</time>
      </trkpt>
      <trkpt lat="56.868271832773" lon="14.790135632302">
        <ele>183.4</ele>
        <time>2020-03-27T12:14:23Z</time>
      </trkpt>
      <trkpt lat="56.868237969897" lon="14.7902397355">
        <ele>184.4</ele>
        <time>2020-03-27T12:14:26Z</time>
      </trkpt>
      <trkpt lat="56.868213746206" lon="14.790285919769">
        <ele>184.8</ele>
        <time>2020-03-27T12:14:27Z</time>
      </trkpt>
      <trkpt lat="56.868205531944" lon="14.790326571984">
        <ele>185.2</ele>
        <time>2020-03-27T12:14:28Z</time>
      </trkpt>
      <trkpt lat="56.868196311854" lon="14.790360602498">
        <ele>185.6</ele>
        <time>2020-03-27T12:14:29Z</time>
      </trkpt>
      <trkpt lat="56.868124143695" lon="14.790519523322">
        <ele>186.2</ele>
        <time>2020-03-27T12:14:33Z</time>
      </trkpt>
      <trkpt lat="56.868100506737" lon="14.79069319629">
        <ele>186.2</ele>
        <time>2020-03-27T12:14:37Z</time>
      </trkpt>
      <trkpt lat="56.868091621923" lon="14.791000141468">
        <ele>186.2</ele>
        <time>2020-03-27T12:14:43Z</time>
      </trkpt>
      <trkpt lat="56.868077791788" lon="14.791051773972">
        <ele>187</ele>
        <time>2020-03-27T12:14:44Z</time>
      </trkpt>
      <trkpt lat="56.868071337725" lon="14.791108854711">
        <ele>186.6</ele>
        <time>2020-03-27T12:14:45Z</time>
      </trkpt>
      <trkpt lat="56.86803320008" lon="14.791344050825">
        <ele>184.8</ele>
        <time>2020-03-27T12:14:48Z</time>
      </trkpt>
      <trkpt lat="56.867932868737" lon="14.791635405669">
        <ele>185</ele>
        <time>2020-03-27T12:14:52Z</time>
      </trkpt>
      <trkpt lat="56.867870842677" lon="14.791841097495">
        <ele>183.8</ele>
        <time>2020-03-27T12:14:55Z</time>
      </trkpt>
      <trkpt lat="56.867796746681" lon="14.792185677404">
        <ele>182.6</ele>
        <time>2020-03-27T12:15:00Z</time>
      </trkpt>
      <trkpt lat="56.867771517162" lon="14.792400421682">
        <ele>182.8</ele>
        <time>2020-03-27T12:15:03Z</time>
      </trkpt>
      <trkpt lat="56.867778557958" lon="14.792872657928">
        <ele>181.8</ele>
        <time>2020-03-27T12:15:08Z</time>
      </trkpt>
      <trkpt lat="56.867847876271" lon="14.793319161741">
        <ele>181.4</ele>
        <time>2020-03-27T12:15:14Z</time>
      </trkpt>
      <trkpt lat="56.867847373357" lon="14.793460229118">
        <ele>179.8</ele>
        <time>2020-03-27T12:15:18Z</time>
      </trkpt>
      <trkpt lat="56.867856509628" lon="14.793498366763">
        <ele>180.2</ele>
        <time>2020-03-27T12:15:19Z</time>
      </trkpt>
      <trkpt lat="56.867862628415" lon="14.793569696732">
        <ele>180</ele>
        <time>2020-03-27T12:15:21Z</time>
      </trkpt>
      <trkpt lat="56.867966731613" lon="14.79386993639">
        <ele>178.8</ele>
        <time>2020-03-27T12:15:33Z</time>
      </trkpt>
      <trkpt lat="56.867979472101" lon="14.793895585004">
        <ele>178.6</ele>
        <time>2020-03-27T12:15:34Z</time>
      </trkpt>
      <trkpt lat="56.867992296408" lon="14.793918635229">
        <ele>178.4</ele>
        <time>2020-03-27T12:15:35Z</time>
      </trkpt>
      <trkpt lat="56.868044767102" lon="14.793982505307">
        <ele>177.6</ele>
        <time>2020-03-27T12:15:40Z</time>
      </trkpt>
      <trkpt lat="56.868086257507" lon="14.794050901611">
        <ele>176.6</ele>
        <time>2020-03-27T12:15:44Z</time>
      </trkpt>
      <trkpt lat="56.868095142321" lon="14.794070431438">
        <ele>174.6</ele>
        <time>2020-03-27T12:15:45Z</time>
      </trkpt>
      <trkpt lat="56.86812623917" lon="14.79415240642">
        <ele>173.6</ele>
        <time>2020-03-27T12:15:49Z</time>
      </trkpt>
      <trkpt lat="56.868180386244" lon="14.794246702795">
        <ele>172.4</ele>
        <time>2020-03-27T12:15:55Z</time>
      </trkpt>
      <trkpt lat="56.868186169755" lon="14.7942630475">
        <ele>172.2</ele>
        <time>2020-03-27T12:15:56Z</time>
      </trkpt>
      <trkpt lat="56.868232856938" lon="14.794351476545">
        <ele>171.8</ele>
        <time>2020-03-27T12:16:03Z</time>
      </trkpt>
      <trkpt lat="56.868270659307" lon="14.794360361359">
        <ele>171.2</ele>
        <time>2020-03-27T12:16:07Z</time>
      </trkpt>
      <trkpt lat="56.868315251015" lon="14.79435776297">
        <ele>170.8</ele>
        <time>2020-03-27T12:16:09Z</time>
      </trkpt>
      <trkpt lat="56.868368895175" lon="14.794292970883">
        <ele>170.4</ele>
        <time>2020-03-27T12:16:13Z</time>
      </trkpt>
      <trkpt lat="56.868399824386" lon="14.794215941222">
        <ele>170.2</ele>
        <time>2020-03-27T12:16:16Z</time>
      </trkpt>
      <trkpt lat="56.868408290105" lon="14.794187778038">
        <ele>170</ele>
        <time>2020-03-27T12:16:17Z</time>
      </trkpt>
      <trkpt lat="56.868530414388" lon="14.793887119285">
        <ele>169.4</ele>
        <time>2020-03-27T12:16:26Z</time>
      </trkpt>
      <trkpt lat="56.86863585869" lon="14.793589394197">
        <ele>169.8</ele>
        <time>2020-03-27T12:16:35Z</time>
      </trkpt>
      <trkpt lat="56.868745577761" lon="14.79328823253">
        <ele>170</ele>
        <time>2020-03-27T12:16:45Z</time>
      </trkpt>
      <trkpt lat="56.868847669303" lon="14.792991094175">
        <ele>169.8</ele>
        <time>2020-03-27T12:16:53Z</time>
      </trkpt>
      <trkpt lat="56.868932997045" lon="14.792687417938">
        <ele>169.4</ele>
        <time>2020-03-27T12:17:01Z</time>
      </trkpt>
      <trkpt lat="56.869013295647" lon="14.792361445847">
        <ele>169.2</ele>
        <time>2020-03-27T12:17:11Z</time>
      </trkpt>
      <trkpt lat="56.869069035282" lon="14.79215835241">
        <ele>169.4</ele>
        <time>2020-03-27T12:17:17Z</time>
      </trkpt>
      <trkpt lat="56.869134162645" lon="14.791847132463">
        <ele>170.2</ele>
        <time>2020-03-27T12:17:25Z</time>
      </trkpt>
      <trkpt lat="56.869193338859" lon="14.791502384916">
        <ele>169.8</ele>
        <time>2020-03-27T12:17:33Z</time>
      </trkpt>
      <trkpt lat="56.869240948051" lon="14.791183202164">
        <ele>169.6</ele>
        <time>2020-03-27T12:17:40Z</time>
      </trkpt>
      <trkpt lat="56.869219574206" lon="14.791093432015">
        <ele>169.6</ele>
        <time>2020-03-27T12:17:43Z</time>
      </trkpt>
      <trkpt lat="56.868878766152" lon="14.790770812684">
        <ele>169.8</ele>
        <time>2020-03-27T12:17:56Z</time>
      </trkpt>
      <trkpt lat="56.86878673289" lon="14.790749187382">
        <ele>171.2</ele>
        <time>2020-03-27T12:18:00Z</time>
      </trkpt>
      <trkpt lat="56.868719090957" lon="14.790726556252">
        <ele>172.8</ele>
        <time>2020-03-27T12:18:03Z</time>
      </trkpt>
      <trkpt lat="56.868674331611" lon="14.790721610931">
        <ele>174</ele>
        <time>2020-03-27T12:18:05Z</time>
      </trkpt>
      <trkpt lat="56.868637199794" lon="14.790710965918">
        <ele>175.2</ele>
        <time>2020-03-27T12:18:07Z</time>
      </trkpt>
      <trkpt lat="56.868606019126" lon="14.790713229031">
        <ele>176.4</ele>
        <time>2020-03-27T12:18:09Z</time>
      </trkpt>
      <trkpt lat="56.868571904793" lon="14.790693866842">
        <ele>177.8</ele>
        <time>2020-03-27T12:18:11Z</time>
      </trkpt>
      <trkpt lat="56.868531755492" lon="14.790661009794">
        <ele>179.2</ele>
        <time>2020-03-27T12:18:14Z</time>
      </trkpt>
      <trkpt lat="56.868491019458" lon="14.790637624293">
        <ele>180.2</ele>
        <time>2020-03-27T12:18:16Z</time>
      </trkpt>
      <trkpt lat="56.868446763026" lon="14.790611808041">
        <ele>181.6</ele>
        <time>2020-03-27T12:18:18Z</time>
      </trkpt>
      <trkpt lat="56.868425137724" lon="14.790610802213">
        <ele>182.6</ele>
        <time>2020-03-27T12:18:19Z</time>
      </trkpt>
      <trkpt lat="56.868407954829" lon="14.790607449453">
        <ele>183.6</ele>
        <time>2020-03-27T12:18:20Z</time>
      </trkpt>
      <trkpt lat="56.868366296786" lon="14.790611305127">
        <ele>185</ele>
        <time>2020-03-27T12:18:22Z</time>
      </trkpt>
      <trkpt lat="56.868314999558" lon="14.790653885179">
        <ele>186.2</ele>
        <time>2020-03-27T12:18:25Z</time>
      </trkpt>
      <trkpt lat="56.868276526637" lon="14.790675510481">
        <ele>187.4</ele>
        <time>2020-03-27T12:18:28Z</time>
      </trkpt>
      <trkpt lat="56.868264037606" lon="14.790678611784">
        <ele>187.8</ele>
        <time>2020-03-27T12:18:29Z</time>
      </trkpt>
      <trkpt lat="56.868204442297" lon="14.790668972599">
        <ele>188.4</ele>
        <time>2020-03-27T12:18:34Z</time>
      </trkpt>
      <trkpt lat="56.86817233962" lon="14.790663272907">
        <ele>187.8</ele>
        <time>2020-03-27T12:18:36Z</time>
      </trkpt>
      <trkpt lat="56.868157503657" lon="14.790636367008">
        <ele>187.2</ele>
        <time>2020-03-27T12:18:38Z</time>
      </trkpt>
      <trkpt lat="56.868143422065" lon="14.79057417331">
        <ele>186.2</ele>
        <time>2020-03-27T12:18:41Z</time>
      </trkpt>
      <trkpt lat="56.868186505031" lon="14.790366805104">
        <ele>185</ele>
        <time>2020-03-27T12:18:50Z</time>
      </trkpt>
      <trkpt lat="56.868209890532" lon="14.790283908113">
        <ele>183.8</ele>
        <time>2020-03-27T12:18:53Z</time>
      </trkpt>
      <trkpt lat="56.86822514559" lon="14.790262869544">
        <ele>185.2</ele>
        <time>2020-03-27T12:18:54Z</time>
      </trkpt>
      <trkpt lat="56.868266468357" lon="14.790176535974">
        <ele>186.4</ele>
        <time>2020-03-27T12:18:57Z</time>
      </trkpt>
      <trkpt lat="56.868420108584" lon="14.790058854098">
        <ele>185.2</ele>
        <time>2020-03-27T12:19:05Z</time>
      </trkpt>
      <trkpt lat="56.868472160183" lon="14.790032032018">
        <ele>184.2</ele>
        <time>2020-03-27T12:19:08Z</time>
      </trkpt>
      <trkpt lat="56.868574000268" lon="14.790091794965">
        <ele>183</ele>
        <time>2020-03-27T12:19:15Z</time>
      </trkpt>
      <trkpt lat="56.868673158145" lon="14.790160358907">
        <ele>181.8</ele>
        <time>2020-03-27T12:19:20Z</time>
      </trkpt>
      <trkpt lat="56.868740297164" lon="14.790281058267">
        <ele>180.6</ele>
        <time>2020-03-27T12:19:24Z</time>
      </trkpt>
      <trkpt lat="56.868782625759" lon="14.790407960233">
        <ele>179.6</ele>
        <time>2020-03-27T12:19:27Z</time>
      </trkpt>
      <trkpt lat="56.868827720381" lon="14.790534443104">
        <ele>178.4</ele>
        <time>2020-03-27T12:19:30Z</time>
      </trkpt>
      <trkpt lat="56.868870132795" lon="14.790653717541">
        <ele>177</ele>
        <time>2020-03-27T12:19:33Z</time>
      </trkpt>
      <trkpt lat="56.868908773354" lon="14.790765448268">
        <ele>175.8</ele>
        <time>2020-03-27T12:19:36Z</time>
      </trkpt>
      <trkpt lat="56.868932410312" lon="14.790819260066">
        <ele>175.2</ele>
        <time>2020-03-27T12:19:38Z</time>
      </trkpt>
      <trkpt lat="56.868927716448" lon="14.790797467126">
        <ele>174.6</ele>
        <time>2020-03-27T12:19:40Z</time>
      </trkpt>
      <trkpt lat="56.86891078501" lon="14.79071582742">
        <ele>174.6</ele>
        <time>2020-03-27T12:19:43Z</time>
      </trkpt>
      <trkpt lat="56.8688780956" lon="14.790583980133">
        <ele>176.2</ele>
        <time>2020-03-27T12:19:47Z</time>
      </trkpt>
      <trkpt lat="56.868854961556" lon="14.790519942417">
        <ele>177.6</ele>
        <time>2020-03-27T12:19:49Z</time>
      </trkpt>
      <trkpt lat="56.868794444238" lon="14.790385412922">
        <ele>178.4</ele>
        <time>2020-03-27T12:19:52Z</time>
      </trkpt>
      <trkpt lat="56.868774579135" lon="14.79034953839">
        <ele>178.6</ele>
        <time>2020-03-27T12:19:53Z</time>
      </trkpt>
      <trkpt lat="56.868734346015" lon="14.790291619461">
        <ele>179.6</ele>
        <time>2020-03-27T12:19:55Z</time>
      </trkpt>
      <trkpt lat="56.868677935828" lon="14.79017351849">
        <ele>181.4</ele>
        <time>2020-03-27T12:19:58Z</time>
      </trkpt>
      <trkpt lat="56.868500742462" lon="14.790048711999">
        <ele>181.4</ele>
        <time>2020-03-27T12:20:06Z</time>
      </trkpt>
      <trkpt lat="56.868320028698" lon="14.790062961229">
        <ele>182.6</ele>
        <time>2020-03-27T12:20:13Z</time>
      </trkpt>
      <trkpt lat="56.868305192735" lon="14.790082574875">
        <ele>183</ele>
        <time>2020-03-27T12:20:14Z</time>
      </trkpt>
      <trkpt lat="56.868283902709" lon="14.790104870729">
        <ele>183.6</ele>
        <time>2020-03-27T12:20:16Z</time>
      </trkpt>
      <trkpt lat="56.86825196767" lon="14.790167483522">
        <ele>184.8</ele>
        <time>2020-03-27T12:20:19Z</time>
      </trkpt>
      <trkpt lat="56.868214752034" lon="14.790250380513">
        <ele>186</ele>
        <time>2020-03-27T12:20:22Z</time>
      </trkpt>
      <trkpt lat="56.868205196668" lon="14.790295223678">
        <ele>186.4</ele>
        <time>2020-03-27T12:20:23Z</time>
      </trkpt>
      <trkpt lat="56.868199580795" lon="14.790356830643">
        <ele>185.2</ele>
        <time>2020-03-27T12:20:24Z</time>
      </trkpt>
      <trkpt lat="56.868186756488" lon="14.790589512187">
        <ele>186.8</ele>
        <time>2020-03-27T12:20:28Z</time>
      </trkpt>
      <trkpt lat="56.868187259402" lon="14.790606108349">
        <ele>187.8</ele>
        <time>2020-03-27T12:20:29Z</time>
      </trkpt>
      <trkpt lat="56.868263199416" lon="14.790614071154">
        <ele>188.4</ele>
        <time>2020-03-27T12:20:34Z</time>
      </trkpt>
      <trkpt lat="56.868280047035" lon="14.790595379517">
        <ele>188.6</ele>
        <time>2020-03-27T12:20:36Z</time>
      </trkpt>
      <trkpt lat="56.868330422254" lon="14.790573167482">
        <ele>188</ele>
        <time>2020-03-27T12:20:41Z</time>
      </trkpt>
      <trkpt lat="56.868355484135" lon="14.790567216333">
        <ele>187.6</ele>
        <time>2020-03-27T12:20:43Z</time>
      </trkpt>
      <trkpt lat="56.868372164116" lon="14.790550536352">
        <ele>187</ele>
        <time>2020-03-27T12:20:45Z</time>
      </trkpt>
      <trkpt lat="56.868384569328" lon="14.790547770325">
        <ele>186.4</ele>
        <time>2020-03-27T12:20:46Z</time>
      </trkpt>
      <trkpt lat="56.868396220169" lon="14.790550787809">
        <ele>186</ele>
        <time>2020-03-27T12:20:47Z</time>
      </trkpt>
      <trkpt lat="56.868415666177" lon="14.79055405675">
        <ele>185.2</ele>
        <time>2020-03-27T12:20:49Z</time>
      </trkpt>
      <trkpt lat="56.868449445234" lon="14.790564450306">
        <ele>184.2</ele>
        <time>2020-03-27T12:20:52Z</time>
      </trkpt>
      <trkpt lat="56.868468472147" lon="14.79056998236">
        <ele>184</ele>
        <time>2020-03-27T12:20:53Z</time>
      </trkpt>
      <trkpt lat="56.868483727205" lon="14.790577609889">
        <ele>183.8</ele>
        <time>2020-03-27T12:20:54Z</time>
      </trkpt>
      <trkpt lat="56.868531839311" lon="14.790605102521">
        <ele>182.6</ele>
        <time>2020-03-27T12:20:57Z</time>
      </trkpt>
      <trkpt lat="56.86858137634" lon="14.790631421687">
        <ele>181.2</ele>
        <time>2020-03-27T12:21:00Z</time>
      </trkpt>
      <trkpt lat="56.868618591976" lon="14.790650280962">
        <ele>180</ele>
        <time>2020-03-27T12:21:03Z</time>
      </trkpt>
      <trkpt lat="56.868637283613" lon="14.790666960943">
        <ele>179.2</ele>
        <time>2020-03-27T12:21:05Z</time>
      </trkpt>
      <trkpt lat="56.86864759335" lon="14.790680288164">
        <ele>179</ele>
        <time>2020-03-27T12:21:06Z</time>
      </trkpt>
      <trkpt lat="56.868715570559" lon="14.790721778569">
        <ele>177.8</ele>
        <time>2020-03-27T12:21:10Z</time>
      </trkpt>
      <trkpt lat="56.868771394013" lon="14.79074767864">
        <ele>176.4</ele>
        <time>2020-03-27T12:21:13Z</time>
      </trkpt>
      <trkpt lat="56.868811543314" lon="14.790774752177">
        <ele>174.8</ele>
        <time>2020-03-27T12:21:15Z</time>
      </trkpt>
      <trkpt lat="56.868862421447" lon="14.790801155162">
        <ele>173.4</ele>
        <time>2020-03-27T12:21:18Z</time>
      </trkpt>
      <trkpt lat="56.868905839689" lon="14.790836945875">
        <ele>172.4</ele>
        <time>2020-03-27T12:21:21Z</time>
      </trkpt>
      <trkpt lat="56.868956801641" lon="14.790889416569">
        <ele>171</ele>
        <time>2020-03-27T12:21:24Z</time>
      </trkpt>
      <trkpt lat="56.868893937391" lon="14.790786989751">
        <ele>170.4</ele>
        <time>2020-03-27T12:21:30Z</time>
      </trkpt>
      <trkpt lat="56.868758402068" lon="14.790707948434">
        <ele>172.4</ele>
        <time>2020-03-27T12:21:36Z</time>
      </trkpt>
      <trkpt lat="56.868702243338" lon="14.790687580417">
        <ele>173.6</ele>
        <time>2020-03-27T12:21:38Z</time>
      </trkpt>
      <trkpt lat="56.868630326636" lon="14.790704260398">
        <ele>175.2</ele>
        <time>2020-03-27T12:21:41Z</time>
      </trkpt>
      <trkpt lat="56.868586656937" lon="14.790710211547">
        <ele>176.8</ele>
        <time>2020-03-27T12:21:43Z</time>
      </trkpt>
      <trkpt lat="56.868543993066" lon="14.790697471059">
        <ele>178</ele>
        <time>2020-03-27T12:21:45Z</time>
      </trkpt>
      <trkpt lat="56.868486828508" lon="14.790655058645">
        <ele>179.2</ele>
        <time>2020-03-27T12:21:48Z</time>
      </trkpt>
      <trkpt lat="56.868450283424" lon="14.790630918773">
        <ele>180.2</ele>
        <time>2020-03-27T12:21:50Z</time>
      </trkpt>
      <trkpt lat="56.868415582358" lon="14.790610886032">
        <ele>182</ele>
        <time>2020-03-27T12:21:52Z</time>
      </trkpt>
      <trkpt lat="56.86838523988" lon="14.790609880204">
        <ele>183.6</ele>
        <time>2020-03-27T12:21:54Z</time>
      </trkpt>
      <trkpt lat="56.868328578236" lon="14.790604096693">
        <ele>185</ele>
        <time>2020-03-27T12:21:57Z</time>
      </trkpt>
      <trkpt lat="56.868272000411" lon="14.790649191315">
        <ele>187.2</ele>
        <time>2020-03-27T12:22:01Z</time>
      </trkpt>
      <trkpt lat="56.868266887452" lon="14.790665368382">
        <ele>188.4</ele>
        <time>2020-03-27T12:22:03Z</time>
      </trkpt>
      <trkpt lat="56.868248698729" lon="14.79066805059">
        <ele>188.8</ele>
        <time>2020-03-27T12:22:06Z</time>
      </trkpt>
      <trkpt lat="56.868229587997" lon="14.79067056516">
        <ele>188.8</ele>
        <time>2020-03-27T12:22:08Z</time>
      </trkpt>
      <trkpt lat="56.868195976578" lon="14.790662769993">
        <ele>187.8</ele>
        <time>2020-03-27T12:22:12Z</time>
      </trkpt>
      <trkpt lat="56.868154234716" lon="14.790639887406">
        <ele>187.2</ele>
        <time>2020-03-27T12:22:14Z</time>
      </trkpt>
      <trkpt lat="56.868149792309" lon="14.790575682052">
        <ele>186.6</ele>
        <time>2020-03-27T12:22:16Z</time>
      </trkpt>
      <trkpt lat="56.868166220833" lon="14.790527989041">
        <ele>186.2</ele>
        <time>2020-03-27T12:22:18Z</time>
      </trkpt>
      <trkpt lat="56.868219529717" lon="14.790337971368">
        <ele>184.8</ele>
        <time>2020-03-27T12:22:24Z</time>
      </trkpt>
      <trkpt lat="56.868248447272" lon="14.790287344692">
        <ele>183.8</ele>
        <time>2020-03-27T12:22:26Z</time>
      </trkpt>
      <trkpt lat="56.868322962363" lon="14.790111408611">
        <ele>183</ele>
        <time>2020-03-27T12:22:31Z</time>
      </trkpt>
      <trkpt lat="56.868356825239" lon="14.790061787763">
        <ele>182.6</ele>
        <time>2020-03-27T12:22:33Z</time>
      </trkpt>
      <trkpt lat="56.868462018084" lon="14.790005629033">
        <ele>181.6</ele>
        <time>2020-03-27T12:22:38Z</time>
      </trkpt>
      <trkpt lat="56.868551369138" lon="14.789965312094">
        <ele>180.4</ele>
        <time>2020-03-27T12:22:42Z</time>
      </trkpt>
      <trkpt lat="56.868575760467" lon="14.789976879116">
        <ele>180</ele>
        <time>2020-03-27T12:22:44Z</time>
      </trkpt>
      <trkpt lat="56.868621106546" lon="14.790035300959">
        <ele>178.8</ele>
        <time>2020-03-27T12:22:48Z</time>
      </trkpt>
      <trkpt lat="56.868637870346" lon="14.79005198094">
        <ele>177.8</ele>
        <time>2020-03-27T12:22:49Z</time>
      </trkpt>
      <trkpt lat="56.868725796477" lon="14.790150216808">
        <ele>177.6</ele>
        <time>2020-03-27T12:22:54Z</time>
      </trkpt>
      <trkpt lat="56.868756055136" lon="14.7902481174">
        <ele>176.6</ele>
        <time>2020-03-27T12:22:57Z</time>
      </trkpt>
      <trkpt lat="56.868766951606" lon="14.790283237561">
        <ele>176.4</ele>
        <time>2020-03-27T12:22:58Z</time>
      </trkpt>
      <trkpt lat="56.868803412871" lon="14.790393878641">
        <ele>175.4</ele>
        <time>2020-03-27T12:23:01Z</time>
      </trkpt>
      <trkpt lat="56.868829564399" lon="14.790473339053">
        <ele>174.4</ele>
        <time>2020-03-27T12:23:03Z</time>
      </trkpt>
      <trkpt lat="56.868862505266" lon="14.790548859972">
        <ele>172.8</ele>
        <time>2020-03-27T12:23:05Z</time>
      </trkpt>
      <trkpt lat="56.868924782783" lon="14.790689592073">
        <ele>171.8</ele>
        <time>2020-03-27T12:23:09Z</time>
      </trkpt>
      <trkpt lat="56.868981276789" lon="14.790791013063">
        <ele>171.6</ele>
        <time>2020-03-27T12:23:13Z</time>
      </trkpt>
      <trkpt lat="56.868969709767" lon="14.790733261772">
        <ele>171</ele>
        <time>2020-03-27T12:23:16Z</time>
      </trkpt>
      <trkpt lat="56.868886058405" lon="14.790452384303">
        <ele>173</ele>
        <time>2020-03-27T12:23:24Z</time>
      </trkpt>
      <trkpt lat="56.868826463096" lon="14.790347359096">
        <ele>174.4</ele>
        <time>2020-03-27T12:23:27Z</time>
      </trkpt>
      <trkpt lat="56.8687942766" lon="14.790290613633">
        <ele>175.4</ele>
        <time>2020-03-27T12:23:29Z</time>
      </trkpt>
      <trkpt lat="56.868714900007" lon="14.790214673619">
        <ele>176.6</ele>
        <time>2020-03-27T12:23:32Z</time>
      </trkpt>
      <trkpt lat="56.868646336065" lon="14.790154659215">
        <ele>177.8</ele>
        <time>2020-03-27T12:23:35Z</time>
      </trkpt>
      <trkpt lat="56.868609120429" lon="14.790136051397">
        <ele>178.8</ele>
        <time>2020-03-27T12:23:37Z</time>
      </trkpt>
      <trkpt lat="56.868580705788" lon="14.790103697263">
        <ele>179.4</ele>
        <time>2020-03-27T12:23:39Z</time>
      </trkpt>
      <trkpt lat="56.868523792687" lon="14.790059692288">
        <ele>179.4</ele>
        <time>2020-03-27T12:23:42Z</time>
      </trkpt>
      <trkpt lat="56.8684757644" lon="14.790032451113">
        <ele>179.6</ele>
        <time>2020-03-27T12:23:44Z</time>
      </trkpt>
      <trkpt lat="56.868430334502" lon="14.790024655946">
        <ele>180.2</ele>
        <time>2020-03-27T12:23:46Z</time>
      </trkpt>
      <trkpt lat="56.868354478307" lon="14.790035971511">
        <ele>182</ele>
        <time>2020-03-27T12:23:49Z</time>
      </trkpt>
      <trkpt lat="56.868318436137" lon="14.790060111383">
        <ele>183.8</ele>
        <time>2020-03-27T12:23:51Z</time>
      </trkpt>
      <trkpt lat="56.868308713133" lon="14.790076456088">
        <ele>184.2</ele>
        <time>2020-03-27T12:23:52Z</time>
      </trkpt>
      <trkpt lat="56.868287842202" lon="14.790126496031">
        <ele>185</ele>
        <time>2020-03-27T12:23:54Z</time>
      </trkpt>
      <trkpt lat="56.868263869968" lon="14.790186510435">
        <ele>185.4</ele>
        <time>2020-03-27T12:23:56Z</time>
      </trkpt>
      <trkpt lat="56.868237802259" lon="14.790254990558">
        <ele>186</ele>
        <time>2020-03-27T12:23:58Z</time>
      </trkpt>
      <trkpt lat="56.868220367907" lon="14.790333696599">
        <ele>185.2</ele>
        <time>2020-03-27T12:24:00Z</time>
      </trkpt>
      <trkpt lat="56.868207878876" lon="14.790413576106">
        <ele>183.6</ele>
        <time>2020-03-27T12:24:01Z</time>
      </trkpt>
      <trkpt lat="56.868240819743" lon="14.790505106454">
        <ele>184.8</ele>
        <time>2020-03-27T12:24:04Z</time>
      </trkpt>
      <trkpt lat="56.868285159994" lon="14.7905414839">
        <ele>185.2</ele>
        <time>2020-03-27T12:24:10Z</time>
      </trkpt>
      <trkpt lat="56.868225061771" lon="14.790577442251">
        <ele>185.4</ele>
        <time>2020-03-27T12:24:19Z</time>
      </trkpt>
      <trkpt lat="56.86821927826" lon="14.790577861346">
        <ele>185</ele>
        <time>2020-03-27T12:24:21Z</time>
      </trkpt>
      <trkpt lat="56.868190947438" lon="14.79055740951">
        <ele>184.2</ele>
        <time>2020-03-27T12:24:24Z</time>
      </trkpt>
      <trkpt lat="56.868163706263" lon="14.790520948245">
        <ele>183.8</ele>
        <time>2020-03-27T12:24:26Z</time>
      </trkpt>
      <trkpt lat="56.868157922752" lon="14.79046939956">
        <ele>183</ele>
        <time>2020-03-27T12:24:28Z</time>
      </trkpt>
      <trkpt lat="56.868159599132" lon="14.790450707923">
        <ele>182.6</ele>
        <time>2020-03-27T12:24:29Z</time>
      </trkpt>
      <trkpt lat="56.868202682098" lon="14.790308969994">
        <ele>181.4</ele>
        <time>2020-03-27T12:24:35Z</time>
      </trkpt>
      <trkpt lat="56.868237299345" lon="14.790230263953">
        <ele>180.4</ele>
        <time>2020-03-27T12:24:38Z</time>
      </trkpt>
      <trkpt lat="56.868254230783" lon="14.79019195867">
        <ele>179.8</ele>
        <time>2020-03-27T12:24:39Z</time>
      </trkpt>
      <trkpt lat="56.868271162221" lon="14.790162119106">
        <ele>179.2</ele>
        <time>2020-03-27T12:24:40Z</time>
      </trkpt>
      <trkpt lat="56.8683248902" lon="14.790121466891">
        <ele>178</ele>
        <time>2020-03-27T12:24:43Z</time>
      </trkpt>
      <trkpt lat="56.868463275369" lon="14.790066733084">
        <ele>177</ele>
        <time>2020-03-27T12:24:49Z</time>
      </trkpt>
      <trkpt lat="56.868539299202" lon="14.790045443058">
        <ele>175.6</ele>
        <time>2020-03-27T12:24:55Z</time>
      </trkpt>
      <trkpt lat="56.868601409081" lon="14.790092633155">
        <ele>174.6</ele>
        <time>2020-03-27T12:24:59Z</time>
      </trkpt>
      <trkpt lat="56.868660417657" lon="14.790189108824">
        <ele>173.6</ele>
        <time>2020-03-27T12:25:03Z</time>
      </trkpt>
      <trkpt lat="56.86870710484" lon="14.790316513704">
        <ele>172.4</ele>
        <time>2020-03-27T12:25:06Z</time>
      </trkpt>
      <trkpt lat="56.868741554449" lon="14.790396393211">
        <ele>171.4</ele>
        <time>2020-03-27T12:25:08Z</time>
      </trkpt>
      <trkpt lat="56.868782709578" lon="14.790570401455">
        <ele>170.2</ele>
        <time>2020-03-27T12:25:12Z</time>
      </trkpt>
      <trkpt lat="56.868818835567" lon="14.790684898209">
        <ele>168.8</ele>
        <time>2020-03-27T12:25:15Z</time>
      </trkpt>
      <trkpt lat="56.868843562172" lon="14.790742984776">
        <ele>167.8</ele>
        <time>2020-03-27T12:25:17Z</time>
      </trkpt>
      <trkpt lat="56.868879101428" lon="14.790813392736">
        <ele>166.6</ele>
        <time>2020-03-27T12:25:22Z</time>
      </trkpt>
      <trkpt lat="56.86882026049" lon="14.790767292286">
        <ele>166.6</ele>
        <time>2020-03-27T12:25:26Z</time>
      </trkpt>
      <trkpt lat="56.868768376529" lon="14.790728232632">
        <ele>168.2</ele>
        <time>2020-03-27T12:25:29Z</time>
      </trkpt>
      <trkpt lat="56.868733424006" lon="14.790698644525">
        <ele>169.4</ele>
        <time>2020-03-27T12:25:31Z</time>
      </trkpt>
      <trkpt lat="56.868693442343" lon="14.790674085558">
        <ele>171</ele>
        <time>2020-03-27T12:25:33Z</time>
      </trkpt>
      <trkpt lat="56.868657986906" lon="14.790696381412">
        <ele>172</ele>
        <time>2020-03-27T12:25:35Z</time>
      </trkpt>
      <trkpt lat="56.868593027181" lon="14.790684311476">
        <ele>173.2</ele>
        <time>2020-03-27T12:25:38Z</time>
      </trkpt>
      <trkpt lat="56.868546423817" lon="14.790659165776">
        <ele>174.8</ele>
        <time>2020-03-27T12:25:40Z</time>
      </trkpt>
      <trkpt lat="56.868512477122" lon="14.790655058645">
        <ele>176.2</ele>
        <time>2020-03-27T12:25:42Z</time>
      </trkpt>
      <trkpt lat="56.868449529053" lon="14.790620944312">
        <ele>177.4</ele>
        <time>2020-03-27T12:25:45Z</time>
      </trkpt>
      <trkpt lat="56.868409966485" lon="14.790599654286">
        <ele>178.4</ele>
        <time>2020-03-27T12:25:47Z</time>
      </trkpt>
      <trkpt lat="56.868391526305" lon="14.790594876603">
        <ele>179</ele>
        <time>2020-03-27T12:25:48Z</time>
      </trkpt>
      <trkpt lat="56.868371996478" lon="14.790594792784">
        <ele>179.6</ele>
        <time>2020-03-27T12:25:49Z</time>
      </trkpt>
      <trkpt lat="56.868342324552" lon="14.790599821924">
        <ele>180.8</ele>
        <time>2020-03-27T12:25:51Z</time>
      </trkpt>
      <trkpt lat="56.868306533839" lon="14.790608371462">
        <ele>182</ele>
        <time>2020-03-27T12:25:53Z</time>
      </trkpt>
      <trkpt lat="56.868269737298" lon="14.790661177432">
        <ele>184.6</ele>
        <time>2020-03-27T12:25:57Z</time>
      </trkpt>
      <trkpt lat="56.868337798326" lon="14.790623207425">
        <ele>185.4</ele>
        <time>2020-03-27T12:26:02Z</time>
      </trkpt>
      <trkpt lat="56.868450870157" lon="14.7905666296">
        <ele>183.6</ele>
        <time>2020-03-27T12:26:10Z</time>
      </trkpt>
      <trkpt lat="56.868475177667" lon="14.790570736731">
        <ele>183</ele>
        <time>2020-03-27T12:26:12Z</time>
      </trkpt>
      <trkpt lat="56.868494623675" lon="14.790576520242">
        <ele>182.4</ele>
        <time>2020-03-27T12:26:14Z</time>
      </trkpt>
      <trkpt lat="56.868531671673" lon="14.790594708965">
        <ele>181</ele>
        <time>2020-03-27T12:26:17Z</time>
      </trkpt>
      <trkpt lat="56.868568049119" lon="14.790627146918">
        <ele>179.8</ele>
        <time>2020-03-27T12:26:20Z</time>
      </trkpt>
      <trkpt lat="56.868612724646" lon="14.790661764165">
        <ele>180.8</ele>
        <time>2020-03-27T12:26:23Z</time>
      </trkpt>
      <trkpt lat="56.868658657458" lon="14.790707529339">
        <ele>180.6</ele>
        <time>2020-03-27T12:26:26Z</time>
      </trkpt>
      <trkpt lat="56.86867609181" lon="14.790759497119">
        <ele>179.2</ele>
        <time>2020-03-27T12:26:28Z</time>
      </trkpt>
      <trkpt lat="56.868680618036" lon="14.790770980322">
        <ele>179.6</ele>
        <time>2020-03-27T12:26:29Z</time>
      </trkpt>
      <trkpt lat="56.868713642722" lon="14.790743236233">
        <ele>179.6</ele>
        <time>2020-03-27T12:26:32Z</time>
      </trkpt>
      <trkpt lat="56.868750187806" lon="14.790733261772">
        <ele>179</ele>
        <time>2020-03-27T12:26:34Z</time>
      </trkpt>
      <trkpt lat="56.868814476979" lon="14.790742565681">
        <ele>178</ele>
        <time>2020-03-27T12:26:37Z</time>
      </trkpt>
      <trkpt lat="56.868882454188" lon="14.790765867363">
        <ele>176.4</ele>
        <time>2020-03-27T12:26:40Z</time>
      </trkpt>
      <trkpt lat="56.868950347578" lon="14.790796461298">
        <ele>175.4</ele>
        <time>2020-03-27T12:26:44Z</time>
      </trkpt>
      <trkpt lat="56.868981779703" lon="14.790807944501">
        <ele>174.2</ele>
        <time>2020-03-27T12:26:46Z</time>
      </trkpt>
      <trkpt lat="56.869012876552" lon="14.790809620881">
        <ele>173.6</ele>
        <time>2020-03-27T12:26:48Z</time>
      </trkpt>
      <trkpt lat="56.869031735827" lon="14.790777685842">
        <ele>173</ele>
        <time>2020-03-27T12:26:50Z</time>
      </trkpt>
      <trkpt lat="56.869031232913" lon="14.790754635617">
        <ele>172.8</ele>
        <time>2020-03-27T12:26:51Z</time>
      </trkpt>
      <trkpt lat="56.868924028412" lon="14.790469064284">
        <ele>172.6</ele>
        <time>2020-03-27T12:26:58Z</time>
      </trkpt>
      <trkpt lat="56.868880023437" lon="14.790328918916">
        <ele>174.6</ele>
        <time>2020-03-27T12:27:01Z</time>
      </trkpt>
      <trkpt lat="56.868856135022" lon="14.790274855661">
        <ele>175.8</ele>
        <time>2020-03-27T12:27:03Z</time>
      </trkpt>
      <trkpt lat="56.86879176203" lon="14.790187180987">
        <ele>177.2</ele>
        <time>2020-03-27T12:27:06Z</time>
      </trkpt>
      <trkpt lat="56.868734178377" lon="14.790139571795">
        <ele>178.2</ele>
        <time>2020-03-27T12:27:09Z</time>
      </trkpt>
      <trkpt lat="56.868676762362" lon="14.790086179092">
        <ele>179.4</ele>
        <time>2020-03-27T12:27:11Z</time>
      </trkpt>
      <trkpt lat="56.868561930332" lon="14.790035300959">
        <ele>180.6</ele>
        <time>2020-03-27T12:27:15Z</time>
      </trkpt>
      <trkpt lat="56.868420024765" lon="14.790000096979">
        <ele>182</ele>
        <time>2020-03-27T12:27:20Z</time>
      </trkpt>
      <trkpt lat="56.868372331754" lon="14.790017447512">
        <ele>183</ele>
        <time>2020-03-27T12:27:22Z</time>
      </trkpt>
      <trkpt lat="56.86833075753" lon="14.790050388379">
        <ele>183.6</ele>
        <time>2020-03-27T12:27:24Z</time>
      </trkpt>
      <trkpt lat="56.868283064519" lon="14.790136554311">
        <ele>184.2</ele>
        <time>2020-03-27T12:27:27Z</time>
      </trkpt>
      <trkpt lat="56.868273090058" lon="14.790158933984">
        <ele>184.6</ele>
        <time>2020-03-27T12:27:28Z</time>
      </trkpt>
      <trkpt lat="56.868239143363" lon="14.790229928677">
        <ele>185.6</ele>
        <time>2020-03-27T12:27:30Z</time>
      </trkpt>
      <trkpt lat="56.868210141989" lon="14.790304359949">
        <ele>186.6</ele>
        <time>2020-03-27T12:27:32Z</time>
      </trkpt>
      <trkpt lat="56.868197736777" lon="14.790348364924">
        <ele>187.2</ele>
        <time>2020-03-27T12:27:33Z</time>
      </trkpt>
      <trkpt lat="56.868187929954" lon="14.790440817281">
        <ele>188</ele>
        <time>2020-03-27T12:27:35Z</time>
      </trkpt>
      <trkpt lat="56.868193629646" lon="14.790525977385">
        <ele>188.6</ele>
        <time>2020-03-27T12:27:37Z</time>
      </trkpt>
      <trkpt lat="56.868226402875" lon="14.790538634054">
        <ele>189</ele>
        <time>2020-03-27T12:27:39Z</time>
      </trkpt>
      <trkpt lat="56.868285998184" lon="14.79055573313">
        <ele>190.2</ele>
        <time>2020-03-27T12:27:44Z</time>
      </trkpt>
      <trkpt lat="56.868318017042" lon="14.790532012353">
        <ele>190.6</ele>
        <time>2020-03-27T12:27:47Z</time>
      </trkpt>
      <trkpt lat="56.868413151607" lon="14.790514913277">
        <ele>189</ele>
        <time>2020-03-27T12:27:57Z</time>
      </trkpt>
      <trkpt lat="56.868444416094" lon="14.790534359285">
        <ele>187.6</ele>
        <time>2020-03-27T12:28:01Z</time>
      </trkpt>
      <trkpt lat="56.868479033341" lon="14.790566210505">
        <ele>186.2</ele>
        <time>2020-03-27T12:28:04Z</time>
      </trkpt>
      <trkpt lat="56.86851935028" lon="14.790603929055">
        <ele>184.8</ele>
        <time>2020-03-27T12:28:07Z</time>
      </trkpt>
      <trkpt lat="56.868577101571" lon="14.790636953741">
        <ele>183.6</ele>
        <time>2020-03-27T12:28:10Z</time>
      </trkpt>
      <trkpt lat="56.868644743504" lon="14.790674923748">
        <ele>182.2</ele>
        <time>2020-03-27T12:28:14Z</time>
      </trkpt>
      <trkpt lat="56.868679779846" lon="14.790697973973">
        <ele>181.2</ele>
        <time>2020-03-27T12:28:16Z</time>
      </trkpt>
      <trkpt lat="56.868736022395" lon="14.790718509628">
        <ele>179.8</ele>
        <time>2020-03-27T12:28:19Z</time>
      </trkpt>
      <trkpt lat="56.868757647697" lon="14.790731669211">
        <ele>178.8</ele>
        <time>2020-03-27T12:28:21Z</time>
      </trkpt>
      <trkpt lat="56.868820009033" lon="14.790749606477">
        <ele>177.6</ele>
        <time>2020-03-27T12:28:24Z</time>
      </trkpt>
      <trkpt lat="56.868896032866" lon="14.790788079398">
        <ele>176.2</ele>
        <time>2020-03-27T12:28:27Z</time>
      </trkpt>
      <trkpt lat="56.868936685081" lon="14.79080886651">
        <ele>175.2</ele>
        <time>2020-03-27T12:28:29Z</time>
      </trkpt>
      <trkpt lat="56.868988149947" lon="14.790849518725">
        <ele>174</ele>
        <time>2020-03-27T12:28:32Z</time>
      </trkpt>
      <trkpt lat="56.869052355301" lon="14.79088765637">
        <ele>172.6</ele>
        <time>2020-03-27T12:28:35Z</time>
      </trkpt>
      <trkpt lat="56.869011032534" lon="14.790834682762">
        <ele>172</ele>
        <time>2020-03-27T12:28:39Z</time>
      </trkpt>
      <trkpt lat="56.868836940471" lon="14.790702500199">
        <ele>173.8</ele>
        <time>2020-03-27T12:28:45Z</time>
      </trkpt>
      <trkpt lat="56.868766197235" lon="14.790665703658">
        <ele>175.2</ele>
        <time>2020-03-27T12:28:48Z</time>
      </trkpt>
      <trkpt lat="56.868721270251" lon="14.790639803587">
        <ele>176.4</ele>
        <time>2020-03-27T12:28:50Z</time>
      </trkpt>
      <trkpt lat="56.86868028276" lon="14.79061859738">
        <ele>177.6</ele>
        <time>2020-03-27T12:28:52Z</time>
      </trkpt>
      <trkpt lat="56.868644324409" lon="14.790633265705">
        <ele>178.6</ele>
        <time>2020-03-27T12:28:54Z</time>
      </trkpt>
      <trkpt lat="56.868595877027" lon="14.790621279588">
        <ele>179.8</ele>
        <time>2020-03-27T12:28:56Z</time>
      </trkpt>
      <trkpt lat="56.868551788233" lon="14.790609293471">
        <ele>181.2</ele>
        <time>2020-03-27T12:28:58Z</time>
      </trkpt>
      <trkpt lat="56.868503257032" lon="14.790590350377">
        <ele>183</ele>
        <time>2020-03-27T12:29:00Z</time>
      </trkpt>
      <trkpt lat="56.868338552697" lon="14.790591356205">
        <ele>184.2</ele>
        <time>2020-03-27T12:29:08Z</time>
      </trkpt>
      <trkpt lat="56.868304019269" lon="14.790596217707">
        <ele>185.2</ele>
        <time>2020-03-27T12:29:10Z</time>
      </trkpt>
      <trkpt lat="56.868288177478" lon="14.790638378664">
        <ele>186.6</ele>
        <time>2020-03-27T12:29:12Z</time>
      </trkpt>
      <trkpt lat="56.868281807234" lon="14.79065547774">
        <ele>187.4</ele>
        <time>2020-03-27T12:29:14Z</time>
      </trkpt>
      <trkpt lat="56.868276778094" lon="14.790651035333">
        <ele>187.6</ele>
        <time>2020-03-27T12:29:15Z</time>
      </trkpt>
      <trkpt lat="56.868255907163" lon="14.790631505506">
        <ele>187.8</ele>
        <time>2020-03-27T12:29:18Z</time>
      </trkpt>
      <trkpt lat="56.868230510006" lon="14.790645754736">
        <ele>187.2</ele>
        <time>2020-03-27T12:29:22Z</time>
      </trkpt>
      <trkpt lat="56.868214165301" lon="14.790650951514">
        <ele>187</ele>
        <time>2020-03-27T12:29:23Z</time>
      </trkpt>
      <trkpt lat="56.868201843908" lon="14.79064122851">
        <ele>186.6</ele>
        <time>2020-03-27T12:29:24Z</time>
      </trkpt>
      <trkpt lat="56.868189187239" lon="14.790590182739">
        <ele>186.2</ele>
        <time>2020-03-27T12:29:26Z</time>
      </trkpt>
      <trkpt lat="56.868201257175" lon="14.790500915504">
        <ele>185.6</ele>
        <time>2020-03-27T12:29:29Z</time>
      </trkpt>
      <trkpt lat="56.868229839454" lon="14.790352136779">
        <ele>184.6</ele>
        <time>2020-03-27T12:29:33Z</time>
      </trkpt>
      <trkpt lat="56.868268982927" lon="14.790212829601">
        <ele>183.6</ele>
        <time>2020-03-27T12:29:37Z</time>
      </trkpt>
      <trkpt lat="56.868280717587" lon="14.790185588426">
        <ele>183.2</ele>
        <time>2020-03-27T12:29:38Z</time>
      </trkpt>
      <trkpt lat="56.86830393545" lon="14.790132028085">
        <ele>182.2</ele>
        <time>2020-03-27T12:29:40Z</time>
      </trkpt>
      <trkpt lat="56.868350119719" lon="14.790070924034">
        <ele>181.2</ele>
        <time>2020-03-27T12:29:43Z</time>
      </trkpt>
      <trkpt lat="56.86844894232" lon="14.790027505792">
        <ele>179.8</ele>
        <time>2020-03-27T12:29:48Z</time>
      </trkpt>
      <trkpt lat="56.868485403585" lon="14.790013591838">
        <ele>181</ele>
        <time>2020-03-27T12:29:50Z</time>
      </trkpt>
      <trkpt lat="56.868666284987" lon="14.790068325645">
        <ele>181.4</ele>
        <time>2020-03-27T12:30:00Z</time>
      </trkpt>
      <trkpt lat="56.868761084276" lon="14.790138817424">
        <ele>179.8</ele>
        <time>2020-03-27T12:30:04Z</time>
      </trkpt>
      <trkpt lat="56.868818248834" lon="14.790233197618">
        <ele>178.6</ele>
        <time>2020-03-27T12:30:08Z</time>
      </trkpt>
      <trkpt lat="56.868887483328" lon="14.790418940522">
        <ele>177.4</ele>
        <time>2020-03-27T12:30:13Z</time>
      </trkpt>
      <trkpt lat="56.868948671198" lon="14.790528240498">
        <ele>175.8</ele>
        <time>2020-03-27T12:30:16Z</time>
      </trkpt>
      <trkpt lat="56.868974319812" lon="14.790599486648">
        <ele>174.8</ele>
        <time>2020-03-27T12:30:18Z</time>
      </trkpt>
      <trkpt lat="56.8690205879" lon="14.790690933177">
        <ele>173.4</ele>
        <time>2020-03-27T12:30:21Z</time>
      </trkpt>
      <trkpt lat="56.868933080864" lon="14.790468729008">
        <ele>174.6</ele>
        <time>2020-03-27T12:30:33Z</time>
      </trkpt>
      <trkpt lat="56.868883460016" lon="14.790336462626">
        <ele>175.8</ele>
        <time>2020-03-27T12:30:36Z</time>
      </trkpt>
      <trkpt lat="56.868827720381" lon="14.790259349146">
        <ele>177.2</ele>
        <time>2020-03-27T12:30:40Z</time>
      </trkpt>
      <trkpt lat="56.868751696548" lon="14.790193886507">
        <ele>178.4</ele>
        <time>2020-03-27T12:30:43Z</time>
      </trkpt>
      <trkpt lat="56.868714061817" lon="14.790159688355">
        <ele>179.4</ele>
        <time>2020-03-27T12:30:45Z</time>
      </trkpt>
      <trkpt lat="56.868674080154" lon="14.790103613444">
        <ele>180</ele>
        <time>2020-03-27T12:30:47Z</time>
      </trkpt>
      <trkpt lat="56.868616747958" lon="14.790066649265">
        <ele>180.6</ele>
        <time>2020-03-27T12:30:49Z</time>
      </trkpt>
      <trkpt lat="56.868521613393" lon="14.790031612923">
        <ele>181.6</ele>
        <time>2020-03-27T12:30:52Z</time>
      </trkpt>
      <trkpt lat="56.868384317871" lon="14.790005293757">
        <ele>182.8</ele>
        <time>2020-03-27T12:30:56Z</time>
      </trkpt>
      <trkpt lat="56.868345761131" lon="14.790010993449">
        <ele>183.4</ele>
        <time>2020-03-27T12:30:58Z</time>
      </trkpt>
      <trkpt lat="56.868314999558" lon="14.790057932089">
        <ele>184.2</ele>
        <time>2020-03-27T12:31:00Z</time>
      </trkpt>
      <trkpt lat="56.868283399795" lon="14.790122724176">
        <ele>185.4</ele>
        <time>2020-03-27T12:31:02Z</time>
      </trkpt>
      <trkpt lat="56.868249034005" lon="14.790215176533">
        <ele>186.6</ele>
        <time>2020-03-27T12:31:04Z</time>
      </trkpt>
      <trkpt lat="56.868213746206" lon="14.790327410174">
        <ele>187.8</ele>
        <time>2020-03-27T12:31:07Z</time>
      </trkpt>
      <trkpt lat="56.868194467836" lon="14.790509967956">
        <ele>188.6</ele>
        <time>2020-03-27T12:31:10Z</time>
      </trkpt>
      <trkpt lat="56.868200502804" lon="14.790527653765">
        <ele>189</ele>
        <time>2020-03-27T12:31:11Z</time>
      </trkpt>
      <trkpt lat="56.868313490816" lon="14.790555314035">
        <ele>191.2</ele>
        <time>2020-03-27T12:31:20Z</time>
      </trkpt>
      <trkpt lat="56.868322962363" lon="14.790555062578">
        <ele>191.2</ele>
        <time>2020-03-27T12:31:21Z</time>
      </trkpt>
      <trkpt lat="56.868360513275" lon="14.790524301005">
        <ele>190.2</ele>
        <time>2020-03-27T12:31:27Z</time>
      </trkpt>
      <trkpt lat="56.86837937255" lon="14.790523630453">
        <ele>189.4</ele>
        <time>2020-03-27T12:31:29Z</time>
      </trkpt>
      <trkpt lat="56.868395801074" lon="14.790531174163">
        <ele>189</ele>
        <time>2020-03-27T12:31:30Z</time>
      </trkpt>
      <trkpt lat="56.868434944547" lon="14.790557577148">
        <ele>188</ele>
        <time>2020-03-27T12:31:33Z</time>
      </trkpt>
      <trkpt lat="56.868467131043" lon="14.79057165874">
        <ele>187.4</ele>
        <time>2020-03-27T12:31:35Z</time>
      </trkpt>
      <trkpt lat="56.868494958951" lon="14.79058004064">
        <ele>185.2</ele>
        <time>2020-03-27T12:31:37Z</time>
      </trkpt>
      <trkpt lat="56.868524127963" lon="14.790602420313">
        <ele>184.2</ele>
        <time>2020-03-27T12:31:39Z</time>
      </trkpt>
      <trkpt lat="56.868539550659" lon="14.790616166629">
        <ele>184.2</ele>
        <time>2020-03-27T12:31:40Z</time>
      </trkpt>
      <trkpt lat="56.868657483992" lon="14.790675761938">
        <ele>182.8</ele>
        <time>2020-03-27T12:31:47Z</time>
      </trkpt>
      <trkpt lat="56.868682126778" lon="14.790687580417">
        <ele>181.4</ele>
        <time>2020-03-27T12:31:49Z</time>
      </trkpt>
      <trkpt lat="56.868717079301" lon="14.790706774968">
        <ele>180.4</ele>
        <time>2020-03-27T12:31:51Z</time>
      </trkpt>
      <trkpt lat="56.868795617704" lon="14.790745750803">
        <ele>179</ele>
        <time>2020-03-27T12:31:55Z</time>
      </trkpt>
      <trkpt lat="56.868853033719" lon="14.790767879019">
        <ele>177.8</ele>
        <time>2020-03-27T12:31:58Z</time>
      </trkpt>
      <trkpt lat="56.868888405337" lon="14.790780787145">
        <ele>176.8</ele>
        <time>2020-03-27T12:32:00Z</time>
      </trkpt>
      <trkpt lat="56.868943390601" lon="14.790798221497">
        <ele>175.4</ele>
        <time>2020-03-27T12:32:03Z</time>
      </trkpt>
      <trkpt lat="56.869000974254" lon="14.790836023866">
        <ele>174.2</ele>
        <time>2020-03-27T12:32:06Z</time>
      </trkpt>
      <trkpt lat="56.869017654235" lon="14.790833006382">
        <ele>172.4</ele>
        <time>2020-03-27T12:32:12Z</time>
      </trkpt>
      <trkpt lat="56.868968284844" lon="14.790789169045">
        <ele>172.4</ele>
        <time>2020-03-27T12:32:14Z</time>
      </trkpt>
      <trkpt lat="56.868805256889" lon="14.790680874897">
        <ele>174</ele>
        <time>2020-03-27T12:32:19Z</time>
      </trkpt>
      <trkpt lat="56.868752283281" lon="14.790659836328">
        <ele>175.8</ele>
        <time>2020-03-27T12:32:21Z</time>
      </trkpt>
      <trkpt lat="56.868706601926" lon="14.79065463955">
        <ele>177.2</ele>
        <time>2020-03-27T12:32:23Z</time>
      </trkpt>
      <trkpt lat="56.868656394345" lon="14.790663692002">
        <ele>178.2</ele>
        <time>2020-03-27T12:32:25Z</time>
      </trkpt>
      <trkpt lat="56.8686098748" lon="14.790642401976">
        <ele>179.8</ele>
        <time>2020-03-27T12:32:27Z</time>
      </trkpt>
      <trkpt lat="56.868538712469" lon="14.790646006193">
        <ele>181</ele>
        <time>2020-03-27T12:32:30Z</time>
      </trkpt>
      <trkpt lat="56.868476854047" lon="14.790654471912">
        <ele>182.4</ele>
        <time>2020-03-27T12:32:34Z</time>
      </trkpt>
      <trkpt lat="56.868365207139" lon="14.790677019223">
        <ele>183.6</ele>
        <time>2020-03-27T12:32:39Z</time>
      </trkpt>
      <trkpt lat="56.868322710906" lon="14.790691268453">
        <ele>185.2</ele>
        <time>2020-03-27T12:32:41Z</time>
      </trkpt>
      <trkpt lat="56.868263869968" lon="14.790719096361">
        <ele>187.4</ele>
        <time>2020-03-27T12:32:45Z</time>
      </trkpt>
      <trkpt lat="56.868253811688" lon="14.790718928723">
        <ele>187.6</ele>
        <time>2020-03-27T12:32:46Z</time>
      </trkpt>
      <trkpt lat="56.868228833626" lon="14.790703925122">
        <ele>186.4</ele>
        <time>2020-03-27T12:32:49Z</time>
      </trkpt>
      <trkpt lat="56.868196814768" lon="14.790715324506">
        <ele>185.2</ele>
        <time>2020-03-27T12:32:53Z</time>
      </trkpt>
      <trkpt lat="56.868168064851" lon="14.790707613158">
        <ele>184.6</ele>
        <time>2020-03-27T12:32:57Z</time>
      </trkpt>
      <trkpt lat="56.868103524221" lon="14.790700153267">
        <ele>183.8</ele>
        <time>2020-03-27T12:33:01Z</time>
      </trkpt>
      <trkpt lat="56.86804744931" lon="14.790818254238">
        <ele>182.8</ele>
        <time>2020-03-27T12:33:07Z</time>
      </trkpt>
      <trkpt lat="56.86804158198" lon="14.790838370798">
        <ele>183</ele>
        <time>2020-03-27T12:33:08Z</time>
      </trkpt>
      <trkpt lat="56.868032026614" lon="14.790916406287">
        <ele>183.2</ele>
        <time>2020-03-27T12:33:11Z</time>
      </trkpt>
      <trkpt lat="56.868017525927" lon="14.791259477454">
        <ele>183.2</ele>
        <time>2020-03-27T12:33:20Z</time>
      </trkpt>
      <trkpt lat="56.86799883429" lon="14.79138889399">
        <ele>182.8</ele>
        <time>2020-03-27T12:33:23Z</time>
      </trkpt>
      <trkpt lat="56.867988524553" lon="14.791670861106">
        <ele>181.6</ele>
        <time>2020-03-27T12:33:30Z</time>
      </trkpt>
      <trkpt lat="56.867891210694" lon="14.791933968947">
        <ele>180.6</ele>
        <time>2020-03-27T12:33:37Z</time>
      </trkpt>
      <trkpt lat="56.86785131285" lon="14.792086016613">
        <ele>180.4</ele>
        <time>2020-03-27T12:33:40Z</time>
      </trkpt>
      <trkpt lat="56.867826837702" lon="14.792211409837">
        <ele>179.6</ele>
        <time>2020-03-27T12:33:43Z</time>
      </trkpt>
      <trkpt lat="56.867811834101" lon="14.792246613817">
        <ele>179.4</ele>
        <time>2020-03-27T12:33:44Z</time>
      </trkpt>
      <trkpt lat="56.867741258503" lon="14.792460268448">
        <ele>178.4</ele>
        <time>2020-03-27T12:33:50Z</time>
      </trkpt>
      <trkpt lat="56.86773061349" lon="14.792575687211">
        <ele>178.4</ele>
        <time>2020-03-27T12:33:52Z</time>
      </trkpt>
      <trkpt lat="56.867739163028" lon="14.792720191167">
        <ele>178.4</ele>
        <time>2020-03-27T12:33:55Z</time>
      </trkpt>
      <trkpt lat="56.867785347297" lon="14.793044235421">
        <ele>177.6</ele>
        <time>2020-03-27T12:34:02Z</time>
      </trkpt>
      <trkpt lat="56.867814013395" lon="14.793254956387">
        <ele>177.2</ele>
        <time>2020-03-27T12:34:06Z</time>
      </trkpt>
      <trkpt lat="56.867838823819" lon="14.793413541935">
        <ele>176.2</ele>
        <time>2020-03-27T12:34:09Z</time>
      </trkpt>
      <trkpt lat="56.867900346965" lon="14.793638931226">
        <ele>175</ele>
        <time>2020-03-27T12:34:14Z</time>
      </trkpt>
      <trkpt lat="56.868011574778" lon="14.793874378797">
        <ele>173.8</ele>
        <time>2020-03-27T12:34:20Z</time>
      </trkpt>
      <trkpt lat="56.868131352129" lon="14.794121141933">
        <ele>172.6</ele>
        <time>2020-03-27T12:34:29Z</time>
      </trkpt>
      <trkpt lat="56.868166053195" lon="14.794215438308">
        <ele>171.4</ele>
        <time>2020-03-27T12:34:32Z</time>
      </trkpt>
      <trkpt lat="56.868183319909" lon="14.794281655318">
        <ele>172.4</ele>
        <time>2020-03-27T12:34:34Z</time>
      </trkpt>
      <trkpt lat="56.868270491669" lon="14.794344435749">
        <ele>172.2</ele>
        <time>2020-03-27T12:34:40Z</time>
      </trkpt>
      <trkpt lat="56.868446930664" lon="14.794182413622">
        <ele>171</ele>
        <time>2020-03-27T12:34:47Z</time>
      </trkpt>
      <trkpt lat="56.868578945589" lon="14.793896507013">
        <ele>170.8</ele>
        <time>2020-03-27T12:34:54Z</time>
      </trkpt>
      <trkpt lat="56.868652873947" lon="14.793630046412">
        <ele>171</ele>
        <time>2020-03-27T12:34:59Z</time>
      </trkpt>
      <trkpt lat="56.868762760656" lon="14.793321005759">
        <ele>171.2</ele>
        <time>2020-03-27T12:35:06Z</time>
      </trkpt>
      <trkpt lat="56.868847250208" lon="14.793011210735">
        <ele>171.6</ele>
        <time>2020-03-27T12:35:12Z</time>
      </trkpt>
      <trkpt lat="56.868943306782" lon="14.792679622771">
        <ele>170.8</ele>
        <time>2020-03-27T12:35:20Z</time>
      </trkpt>
      <trkpt lat="56.868990999793" lon="14.792537381928">
        <ele>169</ele>
        <time>2020-03-27T12:35:24Z</time>
      </trkpt>
      <trkpt lat="56.869068867644" lon="14.792245105075">
        <ele>167.6</ele>
        <time>2020-03-27T12:35:30Z</time>
      </trkpt>
      <trkpt lat="56.869148411875" lon="14.792009070771">
        <ele>168.6</ele>
        <time>2020-03-27T12:35:36Z</time>
      </trkpt>
      <trkpt lat="56.869218903654" lon="14.791660132274">
        <ele>168.8</ele>
        <time>2020-03-27T12:35:43Z</time>
      </trkpt>
      <trkpt lat="56.869294843668" lon="14.79131932422">
        <ele>168.8</ele>
        <time>2020-03-27T12:35:49Z</time>
      </trkpt>
      <trkpt lat="56.869374387899" lon="14.790973403207">
        <ele>168.8</ele>
        <time>2020-03-27T12:35:56Z</time>
      </trkpt>
      <trkpt lat="56.869437838882" lon="14.790642821071">
        <ele>168.8</ele>
        <time>2020-03-27T12:36:03Z</time>
      </trkpt>
      <trkpt lat="56.86949416525" lon="14.790323219224">
        <ele>168.6</ele>
        <time>2020-03-27T12:36:09Z</time>
      </trkpt>
      <trkpt lat="56.869561388088" lon="14.789990290156">
        <ele>168.4</ele>
        <time>2020-03-27T12:36:17Z</time>
      </trkpt>
      <trkpt lat="56.869636573731" lon="14.789663312237">
        <ele>168</ele>
        <time>2020-03-27T12:36:24Z</time>
      </trkpt>
      <trkpt lat="56.869715028315" lon="14.789347817521">
        <ele>168</ele>
        <time>2020-03-27T12:36:30Z</time>
      </trkpt>
      <trkpt lat="56.869806726301" lon="14.789030981701">
        <ele>167.8</ele>
        <time>2020-03-27T12:36:37Z</time>
      </trkpt>
      <trkpt lat="56.869852575294" lon="14.788974822971">
        <ele>167.8</ele>
        <time>2020-03-27T12:36:39Z</time>
      </trkpt>
      <trkpt lat="56.870019375104" lon="14.789109687742">
        <ele>167.6</ele>
        <time>2020-03-27T12:36:46Z</time>
      </trkpt>
      <trkpt lat="56.87018064286" lon="14.78928336071">
        <ele>168.2</ele>
        <time>2020-03-27T12:36:53Z</time>
      </trkpt>
      <trkpt lat="56.870339647503" lon="14.789444377009">
        <ele>168.8</ele>
        <time>2020-03-27T12:37:00Z</time>
      </trkpt>
      <trkpt lat="56.870435033525" lon="14.789533728063">
        <ele>169.6</ele>
        <time>2020-03-27T12:37:04Z</time>
      </trkpt>
      <trkpt lat="56.870538466171" lon="14.789636573976">
        <ele>170.8</ele>
        <time>2020-03-27T12:37:08Z</time>
      </trkpt>
      <trkpt lat="56.870700991212" lon="14.78978040738">
        <ele>171.6</ele>
        <time>2020-03-27T12:37:14Z</time>
      </trkpt>
      <trkpt lat="56.870761759987" lon="14.78982734602">
        <ele>171.8</ele>
        <time>2020-03-27T12:37:16Z</time>
      </trkpt>
      <trkpt lat="56.870898384957" lon="14.789955086176">
        <ele>173.2</ele>
        <time>2020-03-27T12:37:21Z</time>
      </trkpt>
      <trkpt lat="56.87106828607" lon="14.790133620646">
        <ele>173.8</ele>
        <time>2020-03-27T12:37:28Z</time>
      </trkpt>
      <trkpt lat="56.871234918242" lon="14.790323470681">
        <ele>174.2</ele>
        <time>2020-03-27T12:37:35Z</time>
      </trkpt>
      <trkpt lat="56.871393755247" lon="14.790520780607">
        <ele>175</ele>
        <time>2020-03-27T12:37:42Z</time>
      </trkpt>
      <trkpt lat="56.871420074413" lon="14.79055405675">
        <ele>175.4</ele>
        <time>2020-03-27T12:37:43Z</time>
      </trkpt>
      <trkpt lat="56.871579917246" lon="14.790798305316">
        <ele>176</ele>
        <time>2020-03-27T12:37:50Z</time>
      </trkpt>
      <trkpt lat="56.871725343211" lon="14.791036518914">
        <ele>175.4</ele>
        <time>2020-03-27T12:37:57Z</time>
      </trkpt>
      <trkpt lat="56.871851323168" lon="14.79132854431">
        <ele>175</ele>
        <time>2020-03-27T12:38:05Z</time>
      </trkpt>
      <trkpt lat="56.871993731649" lon="14.791563740424">
        <ele>174.2</ele>
        <time>2020-03-27T12:38:12Z</time>
      </trkpt>
      <trkpt lat="56.872157765432" lon="14.791784016756">
        <ele>173.6</ele>
        <time>2020-03-27T12:38:19Z</time>
      </trkpt>
      <trkpt lat="56.872283158656" lon="14.791919552079">
        <ele>173.2</ele>
        <time>2020-03-27T12:38:24Z</time>
      </trkpt>
      <trkpt lat="56.872475020347" lon="14.792072270297">
        <ele>173.8</ele>
        <time>2020-03-27T12:38:31Z</time>
      </trkpt>
      <trkpt lat="56.872642658347" lon="14.79219188001">
        <ele>174.2</ele>
        <time>2020-03-27T12:38:37Z</time>
      </trkpt>
      <trkpt lat="56.872665373296" lon="14.792212415665">
        <ele>174.4</ele>
        <time>2020-03-27T12:38:38Z</time>
      </trkpt>
      <trkpt lat="56.872805099569" lon="14.792468231253">
        <ele>175</ele>
        <time>2020-03-27T12:38:46Z</time>
      </trkpt>
      <trkpt lat="56.87286788" lon="14.792569233148">
        <ele>175.4</ele>
        <time>2020-03-27T12:38:49Z</time>
      </trkpt>
      <trkpt lat="56.873044570452" lon="14.792733183112">
        <ele>176</ele>
        <time>2020-03-27T12:38:56Z</time>
      </trkpt>
      <trkpt lat="56.873232325012" lon="14.792808620212">
        <ele>175.8</ele>
        <time>2020-03-27T12:39:03Z</time>
      </trkpt>
      <trkpt lat="56.873273061046" lon="14.792817002112">
        <ele>175.6</ele>
        <time>2020-03-27T12:39:05Z</time>
      </trkpt>
    </trkseg>
  </trk>
</gpx>